<?xml version="1.0" encoding="UTF-8" standalone="no" ?>
<gpx xmlns="http://www.topografix.com/GPX/1/1" xmlns:xsi="http://www.w3.org/2001/XMLSchema-instance" xsi:schemaLocation="http://www.topografix.com/GPX/1/1 http://www.topografix.com/GPX/1/1/gpx.xsd" version="1.1" creator="VisuGPX - https://www.visugpx.com">
  <metadata>
    <name>Course à pied le midi</name>
  </metadata>
  <trk>
    <name><![CDATA[Course à pied le midi_1]]></name>
    <trkseg>
      <trkpt lat="43.6487" lon="1.37649">
        <ele>140</ele>
        <time>2025-04-09T10:06:57Z</time>
      </trkpt>
      <trkpt lat="43.64873" lon="1.37649">
        <ele>140</ele>
        <time>2025-04-09T10:06:58Z</time>
      </trkpt>
      <trkpt lat="43.64874" lon="1.37651">
        <ele>140</ele>
        <time>2025-04-09T10:06:59Z</time>
      </trkpt>
      <trkpt lat="43.64874" lon="1.37652">
        <ele>140</ele>
        <time>2025-04-09T10:07:00Z</time>
      </trkpt>
      <trkpt lat="43.64875" lon="1.37654">
        <ele>139</ele>
        <time>2025-04-09T10:07:01Z</time>
      </trkpt>
      <trkpt lat="43.64876" lon="1.37655">
        <ele>139</ele>
        <time>2025-04-09T10:07:02Z</time>
      </trkpt>
      <trkpt lat="43.64877" lon="1.37657">
        <ele>139</ele>
        <time>2025-04-09T10:07:03Z</time>
      </trkpt>
      <trkpt lat="43.64878" lon="1.37658">
        <ele>139</ele>
        <time>2025-04-09T10:07:04Z</time>
      </trkpt>
      <trkpt lat="43.64878" lon="1.3766">
        <ele>139</ele>
        <time>2025-04-09T10:07:05Z</time>
      </trkpt>
      <trkpt lat="43.64879" lon="1.37662">
        <ele>139</ele>
        <time>2025-04-09T10:07:06Z</time>
      </trkpt>
      <trkpt lat="43.64879" lon="1.37664">
        <ele>139</ele>
        <time>2025-04-09T10:07:07Z</time>
      </trkpt>
      <trkpt lat="43.6488" lon="1.37666">
        <ele>139</ele>
        <time>2025-04-09T10:07:08Z</time>
      </trkpt>
      <trkpt lat="43.6488" lon="1.37669">
        <ele>139</ele>
        <time>2025-04-09T10:07:09Z</time>
      </trkpt>
      <trkpt lat="43.6488" lon="1.37671">
        <ele>139</ele>
        <time>2025-04-09T10:07:10Z</time>
      </trkpt>
      <trkpt lat="43.64881" lon="1.37673">
        <ele>139</ele>
        <time>2025-04-09T10:07:11Z</time>
      </trkpt>
      <trkpt lat="43.64881" lon="1.37676">
        <ele>139</ele>
        <time>2025-04-09T10:07:12Z</time>
      </trkpt>
      <trkpt lat="43.64882" lon="1.37679">
        <ele>139</ele>
        <time>2025-04-09T10:07:13Z</time>
      </trkpt>
      <trkpt lat="43.64883" lon="1.37682">
        <ele>139</ele>
        <time>2025-04-09T10:07:14Z</time>
      </trkpt>
      <trkpt lat="43.64883" lon="1.37686">
        <ele>138</ele>
        <time>2025-04-09T10:07:15Z</time>
      </trkpt>
      <trkpt lat="43.64884" lon="1.37689">
        <ele>138</ele>
        <time>2025-04-09T10:07:16Z</time>
      </trkpt>
      <trkpt lat="43.64885" lon="1.37692">
        <ele>138</ele>
        <time>2025-04-09T10:07:17Z</time>
      </trkpt>
      <trkpt lat="43.64886" lon="1.37696">
        <ele>138</ele>
        <time>2025-04-09T10:07:18Z</time>
      </trkpt>
      <trkpt lat="43.64886" lon="1.37699">
        <ele>138</ele>
        <time>2025-04-09T10:07:19Z</time>
      </trkpt>
      <trkpt lat="43.64887" lon="1.37701">
        <ele>138</ele>
        <time>2025-04-09T10:07:20Z</time>
      </trkpt>
      <trkpt lat="43.64887" lon="1.37703">
        <ele>138</ele>
        <time>2025-04-09T10:07:21Z</time>
      </trkpt>
      <trkpt lat="43.64888" lon="1.37705">
        <ele>138</ele>
        <time>2025-04-09T10:07:22Z</time>
      </trkpt>
      <trkpt lat="43.64888" lon="1.37707">
        <ele>138</ele>
        <time>2025-04-09T10:07:23Z</time>
      </trkpt>
      <trkpt lat="43.6489" lon="1.37718">
        <ele>138</ele>
        <time>2025-04-09T10:07:24Z</time>
      </trkpt>
      <trkpt lat="43.64891" lon="1.37721">
        <ele>138</ele>
        <time>2025-04-09T10:07:25Z</time>
      </trkpt>
      <trkpt lat="43.64892" lon="1.37724">
        <ele>138</ele>
        <time>2025-04-09T10:07:26Z</time>
      </trkpt>
      <trkpt lat="43.64892" lon="1.37728">
        <ele>138</ele>
        <time>2025-04-09T10:07:27Z</time>
      </trkpt>
      <trkpt lat="43.64893" lon="1.37729">
        <ele>138</ele>
        <time>2025-04-09T10:07:28Z</time>
      </trkpt>
      <trkpt lat="43.64893" lon="1.37731">
        <ele>138</ele>
        <time>2025-04-09T10:07:29Z</time>
      </trkpt>
      <trkpt lat="43.64893" lon="1.37733">
        <ele>138</ele>
        <time>2025-04-09T10:07:30Z</time>
      </trkpt>
      <trkpt lat="43.64894" lon="1.37735">
        <ele>138</ele>
        <time>2025-04-09T10:07:31Z</time>
      </trkpt>
      <trkpt lat="43.64897" lon="1.37745">
        <ele>138</ele>
        <time>2025-04-09T10:07:32Z</time>
      </trkpt>
      <trkpt lat="43.64898" lon="1.37748">
        <ele>138</ele>
        <time>2025-04-09T10:07:33Z</time>
      </trkpt>
      <trkpt lat="43.64899" lon="1.37751">
        <ele>138</ele>
        <time>2025-04-09T10:07:34Z</time>
      </trkpt>
      <trkpt lat="43.649" lon="1.37754">
        <ele>139</ele>
        <time>2025-04-09T10:07:35Z</time>
      </trkpt>
      <trkpt lat="43.64901" lon="1.37758">
        <ele>139</ele>
        <time>2025-04-09T10:07:36Z</time>
      </trkpt>
      <trkpt lat="43.64902" lon="1.37762">
        <ele>139</ele>
        <time>2025-04-09T10:07:37Z</time>
      </trkpt>
      <trkpt lat="43.64903" lon="1.37766">
        <ele>139</ele>
        <time>2025-04-09T10:07:38Z</time>
      </trkpt>
      <trkpt lat="43.64904" lon="1.3777">
        <ele>139</ele>
        <time>2025-04-09T10:07:39Z</time>
      </trkpt>
      <trkpt lat="43.64905" lon="1.37774">
        <ele>139</ele>
        <time>2025-04-09T10:07:40Z</time>
      </trkpt>
      <trkpt lat="43.64906" lon="1.37779">
        <ele>139</ele>
        <time>2025-04-09T10:07:41Z</time>
      </trkpt>
      <trkpt lat="43.64906" lon="1.37783">
        <ele>138</ele>
        <time>2025-04-09T10:07:42Z</time>
      </trkpt>
      <trkpt lat="43.64907" lon="1.37788">
        <ele>138</ele>
        <time>2025-04-09T10:07:43Z</time>
      </trkpt>
      <trkpt lat="43.64908" lon="1.37789">
        <ele>139</ele>
        <time>2025-04-09T10:07:44Z</time>
      </trkpt>
      <trkpt lat="43.64908" lon="1.37791">
        <ele>139</ele>
        <time>2025-04-09T10:07:45Z</time>
      </trkpt>
      <trkpt lat="43.64908" lon="1.37793">
        <ele>139</ele>
        <time>2025-04-09T10:07:46Z</time>
      </trkpt>
      <trkpt lat="43.64909" lon="1.37795">
        <ele>138</ele>
        <time>2025-04-09T10:07:47Z</time>
      </trkpt>
      <trkpt lat="43.64911" lon="1.37803">
        <ele>138</ele>
        <time>2025-04-09T10:07:48Z</time>
      </trkpt>
      <trkpt lat="43.64911" lon="1.37805">
        <ele>138</ele>
        <time>2025-04-09T10:07:49Z</time>
      </trkpt>
      <trkpt lat="43.64912" lon="1.37806">
        <ele>138</ele>
        <time>2025-04-09T10:07:50Z</time>
      </trkpt>
      <trkpt lat="43.64912" lon="1.37808">
        <ele>138</ele>
        <time>2025-04-09T10:07:51Z</time>
      </trkpt>
      <trkpt lat="43.64912" lon="1.37809">
        <ele>138</ele>
        <time>2025-04-09T10:07:52Z</time>
      </trkpt>
      <trkpt lat="43.64915" lon="1.37821">
        <ele>138</ele>
        <time>2025-04-09T10:07:53Z</time>
      </trkpt>
      <trkpt lat="43.64916" lon="1.37825">
        <ele>138</ele>
        <time>2025-04-09T10:07:54Z</time>
      </trkpt>
      <trkpt lat="43.64917" lon="1.37829">
        <ele>138</ele>
        <time>2025-04-09T10:07:55Z</time>
      </trkpt>
      <trkpt lat="43.64918" lon="1.37832">
        <ele>138</ele>
        <time>2025-04-09T10:07:56Z</time>
      </trkpt>
      <trkpt lat="43.64919" lon="1.37835">
        <ele>138</ele>
        <time>2025-04-09T10:07:57Z</time>
      </trkpt>
      <trkpt lat="43.6492" lon="1.37838">
        <ele>138</ele>
        <time>2025-04-09T10:07:58Z</time>
      </trkpt>
      <trkpt lat="43.6492" lon="1.37842">
        <ele>138</ele>
        <time>2025-04-09T10:07:59Z</time>
      </trkpt>
      <trkpt lat="43.64921" lon="1.37844">
        <ele>138</ele>
        <time>2025-04-09T10:08:00Z</time>
      </trkpt>
      <trkpt lat="43.64922" lon="1.37847">
        <ele>138</ele>
        <time>2025-04-09T10:08:01Z</time>
      </trkpt>
      <trkpt lat="43.64922" lon="1.3785">
        <ele>138</ele>
        <time>2025-04-09T10:08:02Z</time>
      </trkpt>
      <trkpt lat="43.64923" lon="1.37852">
        <ele>138</ele>
        <time>2025-04-09T10:08:03Z</time>
      </trkpt>
      <trkpt lat="43.64924" lon="1.37855">
        <ele>138</ele>
        <time>2025-04-09T10:08:04Z</time>
      </trkpt>
      <trkpt lat="43.64924" lon="1.37858">
        <ele>138</ele>
        <time>2025-04-09T10:08:05Z</time>
      </trkpt>
      <trkpt lat="43.64924" lon="1.3786">
        <ele>138</ele>
        <time>2025-04-09T10:08:06Z</time>
      </trkpt>
      <trkpt lat="43.64925" lon="1.37863">
        <ele>138</ele>
        <time>2025-04-09T10:08:07Z</time>
      </trkpt>
      <trkpt lat="43.64925" lon="1.37865">
        <ele>138</ele>
        <time>2025-04-09T10:08:08Z</time>
      </trkpt>
      <trkpt lat="43.64926" lon="1.37868">
        <ele>138</ele>
        <time>2025-04-09T10:08:09Z</time>
      </trkpt>
      <trkpt lat="43.64927" lon="1.37871">
        <ele>138</ele>
        <time>2025-04-09T10:08:10Z</time>
      </trkpt>
      <trkpt lat="43.64927" lon="1.37874">
        <ele>138</ele>
        <time>2025-04-09T10:08:11Z</time>
      </trkpt>
      <trkpt lat="43.64928" lon="1.37878">
        <ele>138</ele>
        <time>2025-04-09T10:08:12Z</time>
      </trkpt>
      <trkpt lat="43.64929" lon="1.37881">
        <ele>138</ele>
        <time>2025-04-09T10:08:13Z</time>
      </trkpt>
      <trkpt lat="43.6493" lon="1.37884">
        <ele>138</ele>
        <time>2025-04-09T10:08:14Z</time>
      </trkpt>
      <trkpt lat="43.64931" lon="1.37887">
        <ele>138</ele>
        <time>2025-04-09T10:08:15Z</time>
      </trkpt>
      <trkpt lat="43.64932" lon="1.3789">
        <ele>137</ele>
        <time>2025-04-09T10:08:16Z</time>
      </trkpt>
      <trkpt lat="43.64933" lon="1.37893">
        <ele>137</ele>
        <time>2025-04-09T10:08:17Z</time>
      </trkpt>
      <trkpt lat="43.64934" lon="1.37896">
        <ele>137</ele>
        <time>2025-04-09T10:08:18Z</time>
      </trkpt>
      <trkpt lat="43.64935" lon="1.37899">
        <ele>137</ele>
        <time>2025-04-09T10:08:19Z</time>
      </trkpt>
      <trkpt lat="43.64936" lon="1.37902">
        <ele>137</ele>
        <time>2025-04-09T10:08:20Z</time>
      </trkpt>
      <trkpt lat="43.64936" lon="1.37905">
        <ele>137</ele>
        <time>2025-04-09T10:08:21Z</time>
      </trkpt>
      <trkpt lat="43.64937" lon="1.37908">
        <ele>137</ele>
        <time>2025-04-09T10:08:22Z</time>
      </trkpt>
      <trkpt lat="43.64937" lon="1.37911">
        <ele>137</ele>
        <time>2025-04-09T10:08:23Z</time>
      </trkpt>
      <trkpt lat="43.64938" lon="1.37913">
        <ele>137</ele>
        <time>2025-04-09T10:08:24Z</time>
      </trkpt>
      <trkpt lat="43.64938" lon="1.37916">
        <ele>137</ele>
        <time>2025-04-09T10:08:25Z</time>
      </trkpt>
      <trkpt lat="43.64939" lon="1.37918">
        <ele>138</ele>
        <time>2025-04-09T10:08:26Z</time>
      </trkpt>
      <trkpt lat="43.6494" lon="1.37924">
        <ele>138</ele>
        <time>2025-04-09T10:08:27Z</time>
      </trkpt>
      <trkpt lat="43.64941" lon="1.3793">
        <ele>138</ele>
        <time>2025-04-09T10:08:28Z</time>
      </trkpt>
      <trkpt lat="43.64942" lon="1.37936">
        <ele>138</ele>
        <time>2025-04-09T10:08:29Z</time>
      </trkpt>
      <trkpt lat="43.64944" lon="1.3794">
        <ele>138</ele>
        <time>2025-04-09T10:08:30Z</time>
      </trkpt>
      <trkpt lat="43.64946" lon="1.37944">
        <ele>138</ele>
        <time>2025-04-09T10:08:31Z</time>
      </trkpt>
      <trkpt lat="43.64947" lon="1.37948">
        <ele>138</ele>
        <time>2025-04-09T10:08:32Z</time>
      </trkpt>
      <trkpt lat="43.64948" lon="1.37951">
        <ele>138</ele>
        <time>2025-04-09T10:08:33Z</time>
      </trkpt>
      <trkpt lat="43.64948" lon="1.37954">
        <ele>138</ele>
        <time>2025-04-09T10:08:34Z</time>
      </trkpt>
      <trkpt lat="43.64949" lon="1.37958">
        <ele>138</ele>
        <time>2025-04-09T10:08:35Z</time>
      </trkpt>
      <trkpt lat="43.64949" lon="1.37961">
        <ele>138</ele>
        <time>2025-04-09T10:08:36Z</time>
      </trkpt>
      <trkpt lat="43.6495" lon="1.37964">
        <ele>138</ele>
        <time>2025-04-09T10:08:37Z</time>
      </trkpt>
      <trkpt lat="43.6495" lon="1.37967">
        <ele>137</ele>
        <time>2025-04-09T10:08:38Z</time>
      </trkpt>
      <trkpt lat="43.64951" lon="1.3797">
        <ele>137</ele>
        <time>2025-04-09T10:08:39Z</time>
      </trkpt>
      <trkpt lat="43.64951" lon="1.37973">
        <ele>137</ele>
        <time>2025-04-09T10:08:40Z</time>
      </trkpt>
      <trkpt lat="43.64952" lon="1.37976">
        <ele>137</ele>
        <time>2025-04-09T10:08:41Z</time>
      </trkpt>
      <trkpt lat="43.64953" lon="1.37979">
        <ele>137</ele>
        <time>2025-04-09T10:08:42Z</time>
      </trkpt>
      <trkpt lat="43.64954" lon="1.37983">
        <ele>137</ele>
        <time>2025-04-09T10:08:43Z</time>
      </trkpt>
      <trkpt lat="43.64955" lon="1.37987">
        <ele>137</ele>
        <time>2025-04-09T10:08:44Z</time>
      </trkpt>
      <trkpt lat="43.64956" lon="1.3799">
        <ele>137</ele>
        <time>2025-04-09T10:08:45Z</time>
      </trkpt>
      <trkpt lat="43.64957" lon="1.37993">
        <ele>137</ele>
        <time>2025-04-09T10:08:46Z</time>
      </trkpt>
      <trkpt lat="43.64958" lon="1.37995">
        <ele>137</ele>
        <time>2025-04-09T10:08:47Z</time>
      </trkpt>
      <trkpt lat="43.6496" lon="1.37998">
        <ele>137</ele>
        <time>2025-04-09T10:08:48Z</time>
      </trkpt>
      <trkpt lat="43.64961" lon="1.38">
        <ele>137</ele>
        <time>2025-04-09T10:08:49Z</time>
      </trkpt>
      <trkpt lat="43.64962" lon="1.38003">
        <ele>137</ele>
        <time>2025-04-09T10:08:50Z</time>
      </trkpt>
      <trkpt lat="43.64963" lon="1.38006">
        <ele>137</ele>
        <time>2025-04-09T10:08:51Z</time>
      </trkpt>
      <trkpt lat="43.64964" lon="1.38009">
        <ele>137</ele>
        <time>2025-04-09T10:08:52Z</time>
      </trkpt>
      <trkpt lat="43.64965" lon="1.38011">
        <ele>137</ele>
        <time>2025-04-09T10:08:53Z</time>
      </trkpt>
      <trkpt lat="43.64966" lon="1.38014">
        <ele>137</ele>
        <time>2025-04-09T10:08:54Z</time>
      </trkpt>
      <trkpt lat="43.64967" lon="1.38018">
        <ele>137</ele>
        <time>2025-04-09T10:08:55Z</time>
      </trkpt>
      <trkpt lat="43.64967" lon="1.38021">
        <ele>138</ele>
        <time>2025-04-09T10:08:56Z</time>
      </trkpt>
      <trkpt lat="43.64968" lon="1.38024">
        <ele>138</ele>
        <time>2025-04-09T10:08:57Z</time>
      </trkpt>
      <trkpt lat="43.64968" lon="1.38028">
        <ele>138</ele>
        <time>2025-04-09T10:08:58Z</time>
      </trkpt>
      <trkpt lat="43.64969" lon="1.38031">
        <ele>138</ele>
        <time>2025-04-09T10:08:59Z</time>
      </trkpt>
      <trkpt lat="43.6497" lon="1.38034">
        <ele>138</ele>
        <time>2025-04-09T10:09:00Z</time>
      </trkpt>
      <trkpt lat="43.6497" lon="1.38038">
        <ele>138</ele>
        <time>2025-04-09T10:09:01Z</time>
      </trkpt>
      <trkpt lat="43.64971" lon="1.38041">
        <ele>137</ele>
        <time>2025-04-09T10:09:02Z</time>
      </trkpt>
      <trkpt lat="43.64972" lon="1.38044">
        <ele>137</ele>
        <time>2025-04-09T10:09:03Z</time>
      </trkpt>
      <trkpt lat="43.64974" lon="1.38047">
        <ele>137</ele>
        <time>2025-04-09T10:09:04Z</time>
      </trkpt>
      <trkpt lat="43.64975" lon="1.3805">
        <ele>137</ele>
        <time>2025-04-09T10:09:05Z</time>
      </trkpt>
      <trkpt lat="43.64976" lon="1.38052">
        <ele>137</ele>
        <time>2025-04-09T10:09:06Z</time>
      </trkpt>
      <trkpt lat="43.64977" lon="1.38055">
        <ele>137</ele>
        <time>2025-04-09T10:09:07Z</time>
      </trkpt>
      <trkpt lat="43.64979" lon="1.38058">
        <ele>137</ele>
        <time>2025-04-09T10:09:08Z</time>
      </trkpt>
      <trkpt lat="43.6498" lon="1.38061">
        <ele>137</ele>
        <time>2025-04-09T10:09:09Z</time>
      </trkpt>
      <trkpt lat="43.64981" lon="1.38064">
        <ele>137</ele>
        <time>2025-04-09T10:09:10Z</time>
      </trkpt>
      <trkpt lat="43.64982" lon="1.38067">
        <ele>138</ele>
        <time>2025-04-09T10:09:11Z</time>
      </trkpt>
      <trkpt lat="43.64983" lon="1.3807">
        <ele>138</ele>
        <time>2025-04-09T10:09:12Z</time>
      </trkpt>
      <trkpt lat="43.64984" lon="1.38074">
        <ele>138</ele>
        <time>2025-04-09T10:09:13Z</time>
      </trkpt>
      <trkpt lat="43.64985" lon="1.38077">
        <ele>138</ele>
        <time>2025-04-09T10:09:14Z</time>
      </trkpt>
      <trkpt lat="43.64986" lon="1.3808">
        <ele>138</ele>
        <time>2025-04-09T10:09:15Z</time>
      </trkpt>
      <trkpt lat="43.64987" lon="1.38083">
        <ele>138</ele>
        <time>2025-04-09T10:09:16Z</time>
      </trkpt>
      <trkpt lat="43.64989" lon="1.38086">
        <ele>138</ele>
        <time>2025-04-09T10:09:17Z</time>
      </trkpt>
      <trkpt lat="43.6499" lon="1.38089">
        <ele>138</ele>
        <time>2025-04-09T10:09:18Z</time>
      </trkpt>
      <trkpt lat="43.64991" lon="1.38092">
        <ele>138</ele>
        <time>2025-04-09T10:09:19Z</time>
      </trkpt>
      <trkpt lat="43.64991" lon="1.38095">
        <ele>138</ele>
        <time>2025-04-09T10:09:20Z</time>
      </trkpt>
      <trkpt lat="43.64992" lon="1.38098">
        <ele>138</ele>
        <time>2025-04-09T10:09:21Z</time>
      </trkpt>
      <trkpt lat="43.64993" lon="1.38101">
        <ele>138</ele>
        <time>2025-04-09T10:09:22Z</time>
      </trkpt>
      <trkpt lat="43.64993" lon="1.38104">
        <ele>138</ele>
        <time>2025-04-09T10:09:23Z</time>
      </trkpt>
      <trkpt lat="43.64994" lon="1.38107">
        <ele>138</ele>
        <time>2025-04-09T10:09:24Z</time>
      </trkpt>
      <trkpt lat="43.64994" lon="1.3811">
        <ele>138</ele>
        <time>2025-04-09T10:09:25Z</time>
      </trkpt>
      <trkpt lat="43.64994" lon="1.38113">
        <ele>138</ele>
        <time>2025-04-09T10:09:26Z</time>
      </trkpt>
      <trkpt lat="43.64995" lon="1.38116">
        <ele>138</ele>
        <time>2025-04-09T10:09:27Z</time>
      </trkpt>
      <trkpt lat="43.64996" lon="1.38119">
        <ele>138</ele>
        <time>2025-04-09T10:09:28Z</time>
      </trkpt>
      <trkpt lat="43.64998" lon="1.38122">
        <ele>138</ele>
        <time>2025-04-09T10:09:29Z</time>
      </trkpt>
      <trkpt lat="43.64999" lon="1.38126">
        <ele>138</ele>
        <time>2025-04-09T10:09:30Z</time>
      </trkpt>
      <trkpt lat="43.65001" lon="1.38129">
        <ele>138</ele>
        <time>2025-04-09T10:09:31Z</time>
      </trkpt>
      <trkpt lat="43.65001" lon="1.38132">
        <ele>138</ele>
        <time>2025-04-09T10:09:32Z</time>
      </trkpt>
      <trkpt lat="43.65002" lon="1.38135">
        <ele>138</ele>
        <time>2025-04-09T10:09:33Z</time>
      </trkpt>
      <trkpt lat="43.65002" lon="1.38139">
        <ele>138</ele>
        <time>2025-04-09T10:09:34Z</time>
      </trkpt>
      <trkpt lat="43.65002" lon="1.38142">
        <ele>138</ele>
        <time>2025-04-09T10:09:35Z</time>
      </trkpt>
      <trkpt lat="43.65002" lon="1.38145">
        <ele>138</ele>
        <time>2025-04-09T10:09:36Z</time>
      </trkpt>
      <trkpt lat="43.65001" lon="1.38149">
        <ele>138</ele>
        <time>2025-04-09T10:09:37Z</time>
      </trkpt>
      <trkpt lat="43.65" lon="1.38152">
        <ele>138</ele>
        <time>2025-04-09T10:09:38Z</time>
      </trkpt>
      <trkpt lat="43.64999" lon="1.38155">
        <ele>138</ele>
        <time>2025-04-09T10:09:39Z</time>
      </trkpt>
      <trkpt lat="43.64998" lon="1.38158">
        <ele>138</ele>
        <time>2025-04-09T10:09:40Z</time>
      </trkpt>
      <trkpt lat="43.64998" lon="1.38161">
        <ele>138</ele>
        <time>2025-04-09T10:09:41Z</time>
      </trkpt>
      <trkpt lat="43.64997" lon="1.38164">
        <ele>138</ele>
        <time>2025-04-09T10:09:42Z</time>
      </trkpt>
      <trkpt lat="43.64996" lon="1.38167">
        <ele>138</ele>
        <time>2025-04-09T10:09:43Z</time>
      </trkpt>
      <trkpt lat="43.64995" lon="1.3817">
        <ele>138</ele>
        <time>2025-04-09T10:09:44Z</time>
      </trkpt>
      <trkpt lat="43.64995" lon="1.38172">
        <ele>138</ele>
        <time>2025-04-09T10:09:45Z</time>
      </trkpt>
      <trkpt lat="43.64994" lon="1.38175">
        <ele>138</ele>
        <time>2025-04-09T10:09:46Z</time>
      </trkpt>
      <trkpt lat="43.64993" lon="1.38178">
        <ele>138</ele>
        <time>2025-04-09T10:09:47Z</time>
      </trkpt>
      <trkpt lat="43.64993" lon="1.38181">
        <ele>138</ele>
        <time>2025-04-09T10:09:48Z</time>
      </trkpt>
      <trkpt lat="43.6499" lon="1.38183">
        <ele>138</ele>
        <time>2025-04-09T10:09:49Z</time>
      </trkpt>
      <trkpt lat="43.64988" lon="1.38186">
        <ele>138</ele>
        <time>2025-04-09T10:09:50Z</time>
      </trkpt>
      <trkpt lat="43.64986" lon="1.38189">
        <ele>138</ele>
        <time>2025-04-09T10:09:51Z</time>
      </trkpt>
      <trkpt lat="43.64983" lon="1.38192">
        <ele>138</ele>
        <time>2025-04-09T10:09:52Z</time>
      </trkpt>
      <trkpt lat="43.64981" lon="1.38192">
        <ele>138</ele>
        <time>2025-04-09T10:09:53Z</time>
      </trkpt>
      <trkpt lat="43.64979" lon="1.38193">
        <ele>139</ele>
        <time>2025-04-09T10:09:54Z</time>
      </trkpt>
      <trkpt lat="43.64976" lon="1.38194">
        <ele>139</ele>
        <time>2025-04-09T10:09:55Z</time>
      </trkpt>
      <trkpt lat="43.64974" lon="1.38194">
        <ele>139</ele>
        <time>2025-04-09T10:09:56Z</time>
      </trkpt>
      <trkpt lat="43.64972" lon="1.38196">
        <ele>139</ele>
        <time>2025-04-09T10:09:57Z</time>
      </trkpt>
      <trkpt lat="43.64969" lon="1.38198">
        <ele>139</ele>
        <time>2025-04-09T10:09:58Z</time>
      </trkpt>
      <trkpt lat="43.64967" lon="1.382">
        <ele>139</ele>
        <time>2025-04-09T10:09:59Z</time>
      </trkpt>
      <trkpt lat="43.64965" lon="1.38201">
        <ele>139</ele>
        <time>2025-04-09T10:10:00Z</time>
      </trkpt>
      <trkpt lat="43.64963" lon="1.38203">
        <ele>139</ele>
        <time>2025-04-09T10:10:01Z</time>
      </trkpt>
      <trkpt lat="43.6496" lon="1.38205">
        <ele>139</ele>
        <time>2025-04-09T10:10:02Z</time>
      </trkpt>
      <trkpt lat="43.64958" lon="1.38206">
        <ele>139</ele>
        <time>2025-04-09T10:10:03Z</time>
      </trkpt>
      <trkpt lat="43.64955" lon="1.38208">
        <ele>139</ele>
        <time>2025-04-09T10:10:04Z</time>
      </trkpt>
      <trkpt lat="43.64953" lon="1.38209">
        <ele>139</ele>
        <time>2025-04-09T10:10:05Z</time>
      </trkpt>
      <trkpt lat="43.64952" lon="1.3821">
        <ele>139</ele>
        <time>2025-04-09T10:10:06Z</time>
      </trkpt>
      <trkpt lat="43.6495" lon="1.38211">
        <ele>139</ele>
        <time>2025-04-09T10:10:07Z</time>
      </trkpt>
      <trkpt lat="43.64948" lon="1.38212">
        <ele>139</ele>
        <time>2025-04-09T10:10:08Z</time>
      </trkpt>
      <trkpt lat="43.64947" lon="1.38213">
        <ele>140</ele>
        <time>2025-04-09T10:10:09Z</time>
      </trkpt>
      <trkpt lat="43.64945" lon="1.38214">
        <ele>140</ele>
        <time>2025-04-09T10:10:10Z</time>
      </trkpt>
      <trkpt lat="43.64942" lon="1.38216">
        <ele>140</ele>
        <time>2025-04-09T10:10:11Z</time>
      </trkpt>
      <trkpt lat="43.64939" lon="1.38217">
        <ele>140</ele>
        <time>2025-04-09T10:10:12Z</time>
      </trkpt>
      <trkpt lat="43.64936" lon="1.38219">
        <ele>140</ele>
        <time>2025-04-09T10:10:13Z</time>
      </trkpt>
      <trkpt lat="43.64933" lon="1.38221">
        <ele>140</ele>
        <time>2025-04-09T10:10:14Z</time>
      </trkpt>
      <trkpt lat="43.64931" lon="1.38223">
        <ele>140</ele>
        <time>2025-04-09T10:10:15Z</time>
      </trkpt>
      <trkpt lat="43.64928" lon="1.38225">
        <ele>140</ele>
        <time>2025-04-09T10:10:16Z</time>
      </trkpt>
      <trkpt lat="43.64925" lon="1.38228">
        <ele>140</ele>
        <time>2025-04-09T10:10:17Z</time>
      </trkpt>
      <trkpt lat="43.64923" lon="1.38232">
        <ele>140</ele>
        <time>2025-04-09T10:10:18Z</time>
      </trkpt>
      <trkpt lat="43.64921" lon="1.38235">
        <ele>140</ele>
        <time>2025-04-09T10:10:19Z</time>
      </trkpt>
      <trkpt lat="43.64918" lon="1.38237">
        <ele>140</ele>
        <time>2025-04-09T10:10:20Z</time>
      </trkpt>
      <trkpt lat="43.64915" lon="1.38239">
        <ele>140</ele>
        <time>2025-04-09T10:10:21Z</time>
      </trkpt>
      <trkpt lat="43.64912" lon="1.38241">
        <ele>140</ele>
        <time>2025-04-09T10:10:22Z</time>
      </trkpt>
      <trkpt lat="43.6491" lon="1.38243">
        <ele>140</ele>
        <time>2025-04-09T10:10:23Z</time>
      </trkpt>
      <trkpt lat="43.64908" lon="1.38244">
        <ele>140</ele>
        <time>2025-04-09T10:10:24Z</time>
      </trkpt>
      <trkpt lat="43.64905" lon="1.38246">
        <ele>140</ele>
        <time>2025-04-09T10:10:25Z</time>
      </trkpt>
      <trkpt lat="43.64903" lon="1.38247">
        <ele>140</ele>
        <time>2025-04-09T10:10:26Z</time>
      </trkpt>
      <trkpt lat="43.64901" lon="1.38248">
        <ele>140</ele>
        <time>2025-04-09T10:10:27Z</time>
      </trkpt>
      <trkpt lat="43.64899" lon="1.3825">
        <ele>140</ele>
        <time>2025-04-09T10:10:28Z</time>
      </trkpt>
      <trkpt lat="43.64898" lon="1.38251">
        <ele>140</ele>
        <time>2025-04-09T10:10:29Z</time>
      </trkpt>
      <trkpt lat="43.64896" lon="1.38252">
        <ele>140</ele>
        <time>2025-04-09T10:10:30Z</time>
      </trkpt>
      <trkpt lat="43.64894" lon="1.38253">
        <ele>140</ele>
        <time>2025-04-09T10:10:31Z</time>
      </trkpt>
      <trkpt lat="43.64892" lon="1.38254">
        <ele>140</ele>
        <time>2025-04-09T10:10:32Z</time>
      </trkpt>
      <trkpt lat="43.64892" lon="1.38254">
        <ele>140</ele>
        <time>2025-04-09T10:10:33Z</time>
      </trkpt>
      <trkpt lat="43.64889" lon="1.38256">
        <ele>140</ele>
        <time>2025-04-09T10:10:34Z</time>
      </trkpt>
      <trkpt lat="43.64886" lon="1.38257">
        <ele>140</ele>
        <time>2025-04-09T10:10:35Z</time>
      </trkpt>
      <trkpt lat="43.64883" lon="1.38259">
        <ele>140</ele>
        <time>2025-04-09T10:10:36Z</time>
      </trkpt>
      <trkpt lat="43.6488" lon="1.38261">
        <ele>140</ele>
        <time>2025-04-09T10:10:37Z</time>
      </trkpt>
      <trkpt lat="43.6488" lon="1.38261">
        <ele>140</ele>
        <time>2025-04-09T10:10:38Z</time>
      </trkpt>
      <trkpt lat="43.64875" lon="1.38265">
        <ele>140</ele>
        <time>2025-04-09T10:10:39Z</time>
      </trkpt>
      <trkpt lat="43.64873" lon="1.38266">
        <ele>140</ele>
        <time>2025-04-09T10:10:40Z</time>
      </trkpt>
      <trkpt lat="43.64871" lon="1.38268">
        <ele>140</ele>
        <time>2025-04-09T10:10:41Z</time>
      </trkpt>
      <trkpt lat="43.64869" lon="1.3827">
        <ele>140</ele>
        <time>2025-04-09T10:10:42Z</time>
      </trkpt>
      <trkpt lat="43.64867" lon="1.38271">
        <ele>140</ele>
        <time>2025-04-09T10:10:43Z</time>
      </trkpt>
      <trkpt lat="43.64866" lon="1.38273">
        <ele>140</ele>
        <time>2025-04-09T10:10:44Z</time>
      </trkpt>
      <trkpt lat="43.64866" lon="1.38273">
        <ele>140</ele>
        <time>2025-04-09T10:10:45Z</time>
      </trkpt>
      <trkpt lat="43.64861" lon="1.38276">
        <ele>140</ele>
        <time>2025-04-09T10:10:46Z</time>
      </trkpt>
      <trkpt lat="43.64861" lon="1.38276">
        <ele>140</ele>
        <time>2025-04-09T10:10:47Z</time>
      </trkpt>
      <trkpt lat="43.64857" lon="1.38278">
        <ele>140</ele>
        <time>2025-04-09T10:10:48Z</time>
      </trkpt>
      <trkpt lat="43.64857" lon="1.38278">
        <ele>140</ele>
        <time>2025-04-09T10:10:49Z</time>
      </trkpt>
      <trkpt lat="43.64853" lon="1.38281">
        <ele>140</ele>
        <time>2025-04-09T10:10:50Z</time>
      </trkpt>
      <trkpt lat="43.64851" lon="1.38281">
        <ele>140</ele>
        <time>2025-04-09T10:10:51Z</time>
      </trkpt>
      <trkpt lat="43.64849" lon="1.38283">
        <ele>140</ele>
        <time>2025-04-09T10:10:52Z</time>
      </trkpt>
      <trkpt lat="43.64847" lon="1.38284">
        <ele>140</ele>
        <time>2025-04-09T10:10:53Z</time>
      </trkpt>
      <trkpt lat="43.64845" lon="1.38285">
        <ele>140</ele>
        <time>2025-04-09T10:10:54Z</time>
      </trkpt>
      <trkpt lat="43.64845" lon="1.38285">
        <ele>140</ele>
        <time>2025-04-09T10:10:55Z</time>
      </trkpt>
      <trkpt lat="43.64843" lon="1.38287">
        <ele>140</ele>
        <time>2025-04-09T10:10:56Z</time>
      </trkpt>
      <trkpt lat="43.64841" lon="1.38289">
        <ele>140</ele>
        <time>2025-04-09T10:10:57Z</time>
      </trkpt>
      <trkpt lat="43.64839" lon="1.38291">
        <ele>140</ele>
        <time>2025-04-09T10:10:58Z</time>
      </trkpt>
      <trkpt lat="43.64837" lon="1.38292">
        <ele>139</ele>
        <time>2025-04-09T10:10:59Z</time>
      </trkpt>
      <trkpt lat="43.64835" lon="1.38294">
        <ele>139</ele>
        <time>2025-04-09T10:11:00Z</time>
      </trkpt>
      <trkpt lat="43.64832" lon="1.38296">
        <ele>139</ele>
        <time>2025-04-09T10:11:01Z</time>
      </trkpt>
      <trkpt lat="43.64829" lon="1.38298">
        <ele>139</ele>
        <time>2025-04-09T10:11:02Z</time>
      </trkpt>
      <trkpt lat="43.64826" lon="1.383">
        <ele>140</ele>
        <time>2025-04-09T10:11:03Z</time>
      </trkpt>
      <trkpt lat="43.64823" lon="1.38303">
        <ele>140</ele>
        <time>2025-04-09T10:11:04Z</time>
      </trkpt>
      <trkpt lat="43.64821" lon="1.38304">
        <ele>140</ele>
        <time>2025-04-09T10:11:05Z</time>
      </trkpt>
      <trkpt lat="43.64821" lon="1.38304">
        <ele>140</ele>
        <time>2025-04-09T10:11:06Z</time>
      </trkpt>
      <trkpt lat="43.64819" lon="1.38306">
        <ele>140</ele>
        <time>2025-04-09T10:11:07Z</time>
      </trkpt>
      <trkpt lat="43.64817" lon="1.38307">
        <ele>139</ele>
        <time>2025-04-09T10:11:08Z</time>
      </trkpt>
      <trkpt lat="43.64815" lon="1.38309">
        <ele>139</ele>
        <time>2025-04-09T10:11:09Z</time>
      </trkpt>
      <trkpt lat="43.64813" lon="1.3831">
        <ele>139</ele>
        <time>2025-04-09T10:11:10Z</time>
      </trkpt>
      <trkpt lat="43.64809" lon="1.38314">
        <ele>139</ele>
        <time>2025-04-09T10:11:11Z</time>
      </trkpt>
      <trkpt lat="43.64807" lon="1.38315">
        <ele>139</ele>
        <time>2025-04-09T10:11:12Z</time>
      </trkpt>
      <trkpt lat="43.64804" lon="1.38316">
        <ele>139</ele>
        <time>2025-04-09T10:11:13Z</time>
      </trkpt>
      <trkpt lat="43.64802" lon="1.38316">
        <ele>139</ele>
        <time>2025-04-09T10:11:14Z</time>
      </trkpt>
      <trkpt lat="43.64802" lon="1.38316">
        <ele>139</ele>
        <time>2025-04-09T10:11:15Z</time>
      </trkpt>
      <trkpt lat="43.64799" lon="1.38317">
        <ele>139</ele>
        <time>2025-04-09T10:11:16Z</time>
      </trkpt>
      <trkpt lat="43.64797" lon="1.38319">
        <ele>139</ele>
        <time>2025-04-09T10:11:17Z</time>
      </trkpt>
      <trkpt lat="43.64794" lon="1.3832">
        <ele>139</ele>
        <time>2025-04-09T10:11:18Z</time>
      </trkpt>
      <trkpt lat="43.64791" lon="1.38321">
        <ele>139</ele>
        <time>2025-04-09T10:11:19Z</time>
      </trkpt>
      <trkpt lat="43.64789" lon="1.38322">
        <ele>139</ele>
        <time>2025-04-09T10:11:20Z</time>
      </trkpt>
      <trkpt lat="43.64786" lon="1.38324">
        <ele>139</ele>
        <time>2025-04-09T10:11:21Z</time>
      </trkpt>
      <trkpt lat="43.64784" lon="1.38326">
        <ele>139</ele>
        <time>2025-04-09T10:11:22Z</time>
      </trkpt>
      <trkpt lat="43.64782" lon="1.38327">
        <ele>139</ele>
        <time>2025-04-09T10:11:23Z</time>
      </trkpt>
      <trkpt lat="43.6478" lon="1.38329">
        <ele>139</ele>
        <time>2025-04-09T10:11:24Z</time>
      </trkpt>
      <trkpt lat="43.64778" lon="1.38331">
        <ele>139</ele>
        <time>2025-04-09T10:11:25Z</time>
      </trkpt>
      <trkpt lat="43.64776" lon="1.38333">
        <ele>139</ele>
        <time>2025-04-09T10:11:26Z</time>
      </trkpt>
      <trkpt lat="43.64774" lon="1.38334">
        <ele>139</ele>
        <time>2025-04-09T10:11:27Z</time>
      </trkpt>
      <trkpt lat="43.64772" lon="1.38336">
        <ele>139</ele>
        <time>2025-04-09T10:11:28Z</time>
      </trkpt>
      <trkpt lat="43.6477" lon="1.38338">
        <ele>139</ele>
        <time>2025-04-09T10:11:29Z</time>
      </trkpt>
      <trkpt lat="43.64768" lon="1.38339">
        <ele>140</ele>
        <time>2025-04-09T10:11:30Z</time>
      </trkpt>
      <trkpt lat="43.64765" lon="1.38341">
        <ele>140</ele>
        <time>2025-04-09T10:11:31Z</time>
      </trkpt>
      <trkpt lat="43.64763" lon="1.38343">
        <ele>139</ele>
        <time>2025-04-09T10:11:32Z</time>
      </trkpt>
      <trkpt lat="43.64761" lon="1.38345">
        <ele>139</ele>
        <time>2025-04-09T10:11:33Z</time>
      </trkpt>
      <trkpt lat="43.64758" lon="1.38347">
        <ele>139</ele>
        <time>2025-04-09T10:11:34Z</time>
      </trkpt>
      <trkpt lat="43.64755" lon="1.38349">
        <ele>140</ele>
        <time>2025-04-09T10:11:35Z</time>
      </trkpt>
      <trkpt lat="43.64752" lon="1.3835">
        <ele>140</ele>
        <time>2025-04-09T10:11:36Z</time>
      </trkpt>
      <trkpt lat="43.64752" lon="1.3835">
        <ele>139</ele>
        <time>2025-04-09T10:11:37Z</time>
      </trkpt>
      <trkpt lat="43.6475" lon="1.38353">
        <ele>139</ele>
        <time>2025-04-09T10:11:38Z</time>
      </trkpt>
      <trkpt lat="43.64748" lon="1.38356">
        <ele>139</ele>
        <time>2025-04-09T10:11:39Z</time>
      </trkpt>
      <trkpt lat="43.64746" lon="1.38359">
        <ele>140</ele>
        <time>2025-04-09T10:11:40Z</time>
      </trkpt>
      <trkpt lat="43.64743" lon="1.38362">
        <ele>140</ele>
        <time>2025-04-09T10:11:41Z</time>
      </trkpt>
      <trkpt lat="43.64743" lon="1.38362">
        <ele>140</ele>
        <time>2025-04-09T10:11:42Z</time>
      </trkpt>
      <trkpt lat="43.64738" lon="1.38365">
        <ele>140</ele>
        <time>2025-04-09T10:11:43Z</time>
      </trkpt>
      <trkpt lat="43.64736" lon="1.38366">
        <ele>140</ele>
        <time>2025-04-09T10:11:44Z</time>
      </trkpt>
      <trkpt lat="43.64734" lon="1.38368">
        <ele>140</ele>
        <time>2025-04-09T10:11:45Z</time>
      </trkpt>
      <trkpt lat="43.64731" lon="1.38369">
        <ele>140</ele>
        <time>2025-04-09T10:11:46Z</time>
      </trkpt>
      <trkpt lat="43.64729" lon="1.38371">
        <ele>140</ele>
        <time>2025-04-09T10:11:47Z</time>
      </trkpt>
      <trkpt lat="43.64727" lon="1.38372">
        <ele>140</ele>
        <time>2025-04-09T10:11:48Z</time>
      </trkpt>
      <trkpt lat="43.64725" lon="1.38373">
        <ele>140</ele>
        <time>2025-04-09T10:11:49Z</time>
      </trkpt>
      <trkpt lat="43.64725" lon="1.38373">
        <ele>140</ele>
        <time>2025-04-09T10:11:50Z</time>
      </trkpt>
      <trkpt lat="43.6472" lon="1.38377">
        <ele>140</ele>
        <time>2025-04-09T10:11:51Z</time>
      </trkpt>
      <trkpt lat="43.64719" lon="1.38377">
        <ele>139</ele>
        <time>2025-04-09T10:11:52Z</time>
      </trkpt>
      <trkpt lat="43.64719" lon="1.38377">
        <ele>139</ele>
        <time>2025-04-09T10:11:53Z</time>
      </trkpt>
      <trkpt lat="43.64717" lon="1.38379">
        <ele>139</ele>
        <time>2025-04-09T10:11:54Z</time>
      </trkpt>
      <trkpt lat="43.64716" lon="1.3838">
        <ele>139</ele>
        <time>2025-04-09T10:11:55Z</time>
      </trkpt>
      <trkpt lat="43.64714" lon="1.38382">
        <ele>139</ele>
        <time>2025-04-09T10:11:56Z</time>
      </trkpt>
      <trkpt lat="43.64712" lon="1.38383">
        <ele>140</ele>
        <time>2025-04-09T10:11:57Z</time>
      </trkpt>
      <trkpt lat="43.6471" lon="1.38385">
        <ele>140</ele>
        <time>2025-04-09T10:11:58Z</time>
      </trkpt>
      <trkpt lat="43.6471" lon="1.38385">
        <ele>139</ele>
        <time>2025-04-09T10:11:59Z</time>
      </trkpt>
      <trkpt lat="43.64702" lon="1.38389">
        <ele>139</ele>
        <time>2025-04-09T10:12:00Z</time>
      </trkpt>
      <trkpt lat="43.64702" lon="1.38389">
        <ele>139</ele>
        <time>2025-04-09T10:12:02Z</time>
      </trkpt>
      <trkpt lat="43.64699" lon="1.38391">
        <ele>139</ele>
        <time>2025-04-09T10:12:03Z</time>
      </trkpt>
      <trkpt lat="43.64696" lon="1.38392">
        <ele>140</ele>
        <time>2025-04-09T10:12:04Z</time>
      </trkpt>
      <trkpt lat="43.64693" lon="1.38394">
        <ele>140</ele>
        <time>2025-04-09T10:12:05Z</time>
      </trkpt>
      <trkpt lat="43.64687" lon="1.38398">
        <ele>140</ele>
        <time>2025-04-09T10:12:06Z</time>
      </trkpt>
      <trkpt lat="43.64686" lon="1.38398">
        <ele>140</ele>
        <time>2025-04-09T10:12:07Z</time>
      </trkpt>
      <trkpt lat="43.64684" lon="1.38399">
        <ele>140</ele>
        <time>2025-04-09T10:12:08Z</time>
      </trkpt>
      <trkpt lat="43.64682" lon="1.38401">
        <ele>140</ele>
        <time>2025-04-09T10:12:09Z</time>
      </trkpt>
      <trkpt lat="43.64679" lon="1.38403">
        <ele>140</ele>
        <time>2025-04-09T10:12:10Z</time>
      </trkpt>
      <trkpt lat="43.64677" lon="1.38405">
        <ele>141</ele>
        <time>2025-04-09T10:12:11Z</time>
      </trkpt>
      <trkpt lat="43.64674" lon="1.38407">
        <ele>141</ele>
        <time>2025-04-09T10:12:12Z</time>
      </trkpt>
      <trkpt lat="43.64672" lon="1.38409">
        <ele>141</ele>
        <time>2025-04-09T10:12:13Z</time>
      </trkpt>
      <trkpt lat="43.6467" lon="1.3841">
        <ele>141</ele>
        <time>2025-04-09T10:12:14Z</time>
      </trkpt>
      <trkpt lat="43.64668" lon="1.38411">
        <ele>141</ele>
        <time>2025-04-09T10:12:15Z</time>
      </trkpt>
      <trkpt lat="43.64668" lon="1.38411">
        <ele>140</ele>
        <time>2025-04-09T10:12:16Z</time>
      </trkpt>
      <trkpt lat="43.64663" lon="1.38415">
        <ele>140</ele>
        <time>2025-04-09T10:12:17Z</time>
      </trkpt>
      <trkpt lat="43.64662" lon="1.38416">
        <ele>140</ele>
        <time>2025-04-09T10:12:18Z</time>
      </trkpt>
      <trkpt lat="43.6466" lon="1.38417">
        <ele>140</ele>
        <time>2025-04-09T10:12:19Z</time>
      </trkpt>
      <trkpt lat="43.64656" lon="1.3842">
        <ele>140</ele>
        <time>2025-04-09T10:12:21Z</time>
      </trkpt>
      <trkpt lat="43.64656" lon="1.3842">
        <ele>140</ele>
        <time>2025-04-09T10:12:22Z</time>
      </trkpt>
      <trkpt lat="43.64651" lon="1.38423">
        <ele>140</ele>
        <time>2025-04-09T10:12:23Z</time>
      </trkpt>
      <trkpt lat="43.6465" lon="1.38424">
        <ele>140</ele>
        <time>2025-04-09T10:12:24Z</time>
      </trkpt>
      <trkpt lat="43.64647" lon="1.38425">
        <ele>140</ele>
        <time>2025-04-09T10:12:25Z</time>
      </trkpt>
      <trkpt lat="43.64645" lon="1.38427">
        <ele>140</ele>
        <time>2025-04-09T10:12:26Z</time>
      </trkpt>
      <trkpt lat="43.64644" lon="1.38428">
        <ele>140</ele>
        <time>2025-04-09T10:12:27Z</time>
      </trkpt>
      <trkpt lat="43.64641" lon="1.3843">
        <ele>140</ele>
        <time>2025-04-09T10:12:28Z</time>
      </trkpt>
      <trkpt lat="43.64639" lon="1.38431">
        <ele>140</ele>
        <time>2025-04-09T10:12:29Z</time>
      </trkpt>
      <trkpt lat="43.64636" lon="1.38433">
        <ele>140</ele>
        <time>2025-04-09T10:12:30Z</time>
      </trkpt>
      <trkpt lat="43.64634" lon="1.38435">
        <ele>140</ele>
        <time>2025-04-09T10:12:31Z</time>
      </trkpt>
      <trkpt lat="43.64631" lon="1.38436">
        <ele>140</ele>
        <time>2025-04-09T10:12:32Z</time>
      </trkpt>
      <trkpt lat="43.64629" lon="1.38438">
        <ele>140</ele>
        <time>2025-04-09T10:12:33Z</time>
      </trkpt>
      <trkpt lat="43.64629" lon="1.38438">
        <ele>140</ele>
        <time>2025-04-09T10:12:34Z</time>
      </trkpt>
      <trkpt lat="43.64627" lon="1.38439">
        <ele>140</ele>
        <time>2025-04-09T10:12:35Z</time>
      </trkpt>
      <trkpt lat="43.64625" lon="1.3844">
        <ele>140</ele>
        <time>2025-04-09T10:12:36Z</time>
      </trkpt>
      <trkpt lat="43.64623" lon="1.38441">
        <ele>140</ele>
        <time>2025-04-09T10:12:37Z</time>
      </trkpt>
      <trkpt lat="43.6462" lon="1.38443">
        <ele>140</ele>
        <time>2025-04-09T10:12:38Z</time>
      </trkpt>
      <trkpt lat="43.64618" lon="1.38445">
        <ele>140</ele>
        <time>2025-04-09T10:12:39Z</time>
      </trkpt>
      <trkpt lat="43.64615" lon="1.38447">
        <ele>140</ele>
        <time>2025-04-09T10:12:40Z</time>
      </trkpt>
      <trkpt lat="43.64612" lon="1.38449">
        <ele>140</ele>
        <time>2025-04-09T10:12:41Z</time>
      </trkpt>
      <trkpt lat="43.64609" lon="1.3845">
        <ele>140</ele>
        <time>2025-04-09T10:12:42Z</time>
      </trkpt>
      <trkpt lat="43.64607" lon="1.38452">
        <ele>140</ele>
        <time>2025-04-09T10:12:43Z</time>
      </trkpt>
      <trkpt lat="43.64606" lon="1.38453">
        <ele>140</ele>
        <time>2025-04-09T10:12:44Z</time>
      </trkpt>
      <trkpt lat="43.64604" lon="1.38455">
        <ele>140</ele>
        <time>2025-04-09T10:12:45Z</time>
      </trkpt>
      <trkpt lat="43.64602" lon="1.38456">
        <ele>141</ele>
        <time>2025-04-09T10:12:46Z</time>
      </trkpt>
      <trkpt lat="43.64601" lon="1.38458">
        <ele>141</ele>
        <time>2025-04-09T10:12:47Z</time>
      </trkpt>
      <trkpt lat="43.64598" lon="1.38459">
        <ele>141</ele>
        <time>2025-04-09T10:12:48Z</time>
      </trkpt>
      <trkpt lat="43.64596" lon="1.38461">
        <ele>141</ele>
        <time>2025-04-09T10:12:49Z</time>
      </trkpt>
      <trkpt lat="43.64594" lon="1.38462">
        <ele>141</ele>
        <time>2025-04-09T10:12:50Z</time>
      </trkpt>
      <trkpt lat="43.64591" lon="1.38464">
        <ele>141</ele>
        <time>2025-04-09T10:12:51Z</time>
      </trkpt>
      <trkpt lat="43.64589" lon="1.38465">
        <ele>141</ele>
        <time>2025-04-09T10:12:52Z</time>
      </trkpt>
      <trkpt lat="43.64589" lon="1.38465">
        <ele>141</ele>
        <time>2025-04-09T10:12:53Z</time>
      </trkpt>
      <trkpt lat="43.64587" lon="1.38467">
        <ele>141</ele>
        <time>2025-04-09T10:12:54Z</time>
      </trkpt>
      <trkpt lat="43.64584" lon="1.38468">
        <ele>141</ele>
        <time>2025-04-09T10:12:55Z</time>
      </trkpt>
      <trkpt lat="43.64581" lon="1.3847">
        <ele>141</ele>
        <time>2025-04-09T10:12:56Z</time>
      </trkpt>
      <trkpt lat="43.64579" lon="1.38472">
        <ele>141</ele>
        <time>2025-04-09T10:12:57Z</time>
      </trkpt>
      <trkpt lat="43.64576" lon="1.38474">
        <ele>141</ele>
        <time>2025-04-09T10:12:58Z</time>
      </trkpt>
      <trkpt lat="43.64573" lon="1.38476">
        <ele>141</ele>
        <time>2025-04-09T10:12:59Z</time>
      </trkpt>
      <trkpt lat="43.6457" lon="1.38478">
        <ele>141</ele>
        <time>2025-04-09T10:13:00Z</time>
      </trkpt>
      <trkpt lat="43.64568" lon="1.3848">
        <ele>141</ele>
        <time>2025-04-09T10:13:01Z</time>
      </trkpt>
      <trkpt lat="43.64565" lon="1.38482">
        <ele>141</ele>
        <time>2025-04-09T10:13:02Z</time>
      </trkpt>
      <trkpt lat="43.64563" lon="1.38483">
        <ele>141</ele>
        <time>2025-04-09T10:13:03Z</time>
      </trkpt>
      <trkpt lat="43.64561" lon="1.38485">
        <ele>141</ele>
        <time>2025-04-09T10:13:04Z</time>
      </trkpt>
      <trkpt lat="43.64559" lon="1.38487">
        <ele>141</ele>
        <time>2025-04-09T10:13:05Z</time>
      </trkpt>
      <trkpt lat="43.64557" lon="1.38489">
        <ele>141</ele>
        <time>2025-04-09T10:13:06Z</time>
      </trkpt>
      <trkpt lat="43.64555" lon="1.3849">
        <ele>141</ele>
        <time>2025-04-09T10:13:07Z</time>
      </trkpt>
      <trkpt lat="43.64553" lon="1.38492">
        <ele>141</ele>
        <time>2025-04-09T10:13:08Z</time>
      </trkpt>
      <trkpt lat="43.64551" lon="1.38493">
        <ele>141</ele>
        <time>2025-04-09T10:13:09Z</time>
      </trkpt>
      <trkpt lat="43.64549" lon="1.38495">
        <ele>141</ele>
        <time>2025-04-09T10:13:10Z</time>
      </trkpt>
      <trkpt lat="43.64549" lon="1.38495">
        <ele>141</ele>
        <time>2025-04-09T10:13:11Z</time>
      </trkpt>
      <trkpt lat="43.64547" lon="1.38497">
        <ele>141</ele>
        <time>2025-04-09T10:13:12Z</time>
      </trkpt>
      <trkpt lat="43.64544" lon="1.38499">
        <ele>141</ele>
        <time>2025-04-09T10:13:13Z</time>
      </trkpt>
      <trkpt lat="43.64541" lon="1.38501">
        <ele>141</ele>
        <time>2025-04-09T10:13:14Z</time>
      </trkpt>
      <trkpt lat="43.64539" lon="1.38503">
        <ele>141</ele>
        <time>2025-04-09T10:13:15Z</time>
      </trkpt>
      <trkpt lat="43.64539" lon="1.38503">
        <ele>141</ele>
        <time>2025-04-09T10:13:16Z</time>
      </trkpt>
      <trkpt lat="43.64536" lon="1.38505">
        <ele>141</ele>
        <time>2025-04-09T10:13:17Z</time>
      </trkpt>
      <trkpt lat="43.64534" lon="1.38507">
        <ele>141</ele>
        <time>2025-04-09T10:13:18Z</time>
      </trkpt>
      <trkpt lat="43.64532" lon="1.38509">
        <ele>141</ele>
        <time>2025-04-09T10:13:19Z</time>
      </trkpt>
      <trkpt lat="43.64529" lon="1.38511">
        <ele>141</ele>
        <time>2025-04-09T10:13:20Z</time>
      </trkpt>
      <trkpt lat="43.64526" lon="1.38514">
        <ele>141</ele>
        <time>2025-04-09T10:13:21Z</time>
      </trkpt>
      <trkpt lat="43.64523" lon="1.38516">
        <ele>141</ele>
        <time>2025-04-09T10:13:22Z</time>
      </trkpt>
      <trkpt lat="43.6452" lon="1.38518">
        <ele>141</ele>
        <time>2025-04-09T10:13:23Z</time>
      </trkpt>
      <trkpt lat="43.64517" lon="1.3852">
        <ele>141</ele>
        <time>2025-04-09T10:13:24Z</time>
      </trkpt>
      <trkpt lat="43.64514" lon="1.38522">
        <ele>141</ele>
        <time>2025-04-09T10:13:25Z</time>
      </trkpt>
      <trkpt lat="43.64511" lon="1.38525">
        <ele>140</ele>
        <time>2025-04-09T10:13:26Z</time>
      </trkpt>
      <trkpt lat="43.64511" lon="1.38525">
        <ele>140</ele>
        <time>2025-04-09T10:13:27Z</time>
      </trkpt>
      <trkpt lat="43.64508" lon="1.38527">
        <ele>140</ele>
        <time>2025-04-09T10:13:28Z</time>
      </trkpt>
      <trkpt lat="43.64505" lon="1.38529">
        <ele>140</ele>
        <time>2025-04-09T10:13:29Z</time>
      </trkpt>
      <trkpt lat="43.64501" lon="1.38532">
        <ele>141</ele>
        <time>2025-04-09T10:13:30Z</time>
      </trkpt>
      <trkpt lat="43.64499" lon="1.38533">
        <ele>141</ele>
        <time>2025-04-09T10:13:31Z</time>
      </trkpt>
      <trkpt lat="43.64496" lon="1.38535">
        <ele>141</ele>
        <time>2025-04-09T10:13:32Z</time>
      </trkpt>
      <trkpt lat="43.64494" lon="1.38535">
        <ele>141</ele>
        <time>2025-04-09T10:13:33Z</time>
      </trkpt>
      <trkpt lat="43.64491" lon="1.38536">
        <ele>141</ele>
        <time>2025-04-09T10:13:34Z</time>
      </trkpt>
      <trkpt lat="43.64489" lon="1.38537">
        <ele>141</ele>
        <time>2025-04-09T10:13:35Z</time>
      </trkpt>
      <trkpt lat="43.64489" lon="1.38537">
        <ele>141</ele>
        <time>2025-04-09T10:13:36Z</time>
      </trkpt>
      <trkpt lat="43.64485" lon="1.3854">
        <ele>141</ele>
        <time>2025-04-09T10:13:37Z</time>
      </trkpt>
      <trkpt lat="43.64483" lon="1.38541">
        <ele>141</ele>
        <time>2025-04-09T10:13:38Z</time>
      </trkpt>
      <trkpt lat="43.64483" lon="1.38541">
        <ele>141</ele>
        <time>2025-04-09T10:13:39Z</time>
      </trkpt>
      <trkpt lat="43.6448" lon="1.38543">
        <ele>140</ele>
        <time>2025-04-09T10:13:40Z</time>
      </trkpt>
      <trkpt lat="43.6448" lon="1.38543">
        <ele>140</ele>
        <time>2025-04-09T10:13:41Z</time>
      </trkpt>
      <trkpt lat="43.64476" lon="1.38545">
        <ele>140</ele>
        <time>2025-04-09T10:13:42Z</time>
      </trkpt>
      <trkpt lat="43.64474" lon="1.38547">
        <ele>140</ele>
        <time>2025-04-09T10:13:43Z</time>
      </trkpt>
      <trkpt lat="43.64472" lon="1.38548">
        <ele>141</ele>
        <time>2025-04-09T10:13:44Z</time>
      </trkpt>
      <trkpt lat="43.64469" lon="1.3855">
        <ele>141</ele>
        <time>2025-04-09T10:13:45Z</time>
      </trkpt>
      <trkpt lat="43.64467" lon="1.38552">
        <ele>141</ele>
        <time>2025-04-09T10:13:46Z</time>
      </trkpt>
      <trkpt lat="43.64465" lon="1.38553">
        <ele>141</ele>
        <time>2025-04-09T10:13:47Z</time>
      </trkpt>
      <trkpt lat="43.64463" lon="1.38555">
        <ele>141</ele>
        <time>2025-04-09T10:13:48Z</time>
      </trkpt>
      <trkpt lat="43.6446" lon="1.38556">
        <ele>141</ele>
        <time>2025-04-09T10:13:49Z</time>
      </trkpt>
      <trkpt lat="43.64458" lon="1.38558">
        <ele>141</ele>
        <time>2025-04-09T10:13:50Z</time>
      </trkpt>
      <trkpt lat="43.64456" lon="1.38559">
        <ele>141</ele>
        <time>2025-04-09T10:13:51Z</time>
      </trkpt>
      <trkpt lat="43.64455" lon="1.3856">
        <ele>141</ele>
        <time>2025-04-09T10:13:52Z</time>
      </trkpt>
      <trkpt lat="43.64453" lon="1.38561">
        <ele>141</ele>
        <time>2025-04-09T10:13:53Z</time>
      </trkpt>
      <trkpt lat="43.64451" lon="1.38562">
        <ele>140</ele>
        <time>2025-04-09T10:13:54Z</time>
      </trkpt>
      <trkpt lat="43.64448" lon="1.38564">
        <ele>140</ele>
        <time>2025-04-09T10:13:55Z</time>
      </trkpt>
      <trkpt lat="43.64446" lon="1.38566">
        <ele>140</ele>
        <time>2025-04-09T10:13:56Z</time>
      </trkpt>
      <trkpt lat="43.64443" lon="1.38567">
        <ele>140</ele>
        <time>2025-04-09T10:13:57Z</time>
      </trkpt>
      <trkpt lat="43.64441" lon="1.38569">
        <ele>141</ele>
        <time>2025-04-09T10:13:58Z</time>
      </trkpt>
      <trkpt lat="43.64439" lon="1.38571">
        <ele>141</ele>
        <time>2025-04-09T10:13:59Z</time>
      </trkpt>
      <trkpt lat="43.64437" lon="1.38572">
        <ele>141</ele>
        <time>2025-04-09T10:14:00Z</time>
      </trkpt>
      <trkpt lat="43.64437" lon="1.38572">
        <ele>141</ele>
        <time>2025-04-09T10:14:01Z</time>
      </trkpt>
      <trkpt lat="43.64433" lon="1.38575">
        <ele>141</ele>
        <time>2025-04-09T10:14:02Z</time>
      </trkpt>
      <trkpt lat="43.64431" lon="1.38576">
        <ele>141</ele>
        <time>2025-04-09T10:14:03Z</time>
      </trkpt>
      <trkpt lat="43.64429" lon="1.38578">
        <ele>141</ele>
        <time>2025-04-09T10:14:04Z</time>
      </trkpt>
      <trkpt lat="43.64427" lon="1.3858">
        <ele>140</ele>
        <time>2025-04-09T10:14:05Z</time>
      </trkpt>
      <trkpt lat="43.64425" lon="1.38581">
        <ele>140</ele>
        <time>2025-04-09T10:14:06Z</time>
      </trkpt>
      <trkpt lat="43.64423" lon="1.38582">
        <ele>140</ele>
        <time>2025-04-09T10:14:07Z</time>
      </trkpt>
      <trkpt lat="43.6442" lon="1.38583">
        <ele>140</ele>
        <time>2025-04-09T10:14:08Z</time>
      </trkpt>
      <trkpt lat="43.64418" lon="1.38585">
        <ele>140</ele>
        <time>2025-04-09T10:14:09Z</time>
      </trkpt>
      <trkpt lat="43.64416" lon="1.38586">
        <ele>140</ele>
        <time>2025-04-09T10:14:10Z</time>
      </trkpt>
      <trkpt lat="43.64413" lon="1.38587">
        <ele>140</ele>
        <time>2025-04-09T10:14:11Z</time>
      </trkpt>
      <trkpt lat="43.64411" lon="1.38589">
        <ele>140</ele>
        <time>2025-04-09T10:14:12Z</time>
      </trkpt>
      <trkpt lat="43.64409" lon="1.38591">
        <ele>140</ele>
        <time>2025-04-09T10:14:13Z</time>
      </trkpt>
      <trkpt lat="43.64407" lon="1.38592">
        <ele>140</ele>
        <time>2025-04-09T10:14:14Z</time>
      </trkpt>
      <trkpt lat="43.64405" lon="1.38594">
        <ele>140</ele>
        <time>2025-04-09T10:14:15Z</time>
      </trkpt>
      <trkpt lat="43.64403" lon="1.38596">
        <ele>141</ele>
        <time>2025-04-09T10:14:16Z</time>
      </trkpt>
      <trkpt lat="43.64401" lon="1.38598">
        <ele>141</ele>
        <time>2025-04-09T10:14:17Z</time>
      </trkpt>
      <trkpt lat="43.64399" lon="1.38599">
        <ele>141</ele>
        <time>2025-04-09T10:14:18Z</time>
      </trkpt>
      <trkpt lat="43.64397" lon="1.386">
        <ele>141</ele>
        <time>2025-04-09T10:14:19Z</time>
      </trkpt>
      <trkpt lat="43.64394" lon="1.38602">
        <ele>141</ele>
        <time>2025-04-09T10:14:20Z</time>
      </trkpt>
      <trkpt lat="43.64392" lon="1.38604">
        <ele>141</ele>
        <time>2025-04-09T10:14:21Z</time>
      </trkpt>
      <trkpt lat="43.6439" lon="1.38605">
        <ele>141</ele>
        <time>2025-04-09T10:14:22Z</time>
      </trkpt>
      <trkpt lat="43.64388" lon="1.38607">
        <ele>141</ele>
        <time>2025-04-09T10:14:23Z</time>
      </trkpt>
      <trkpt lat="43.64386" lon="1.38608">
        <ele>141</ele>
        <time>2025-04-09T10:14:24Z</time>
      </trkpt>
      <trkpt lat="43.64384" lon="1.3861">
        <ele>141</ele>
        <time>2025-04-09T10:14:25Z</time>
      </trkpt>
      <trkpt lat="43.64382" lon="1.38611">
        <ele>141</ele>
        <time>2025-04-09T10:14:26Z</time>
      </trkpt>
      <trkpt lat="43.64379" lon="1.38613">
        <ele>141</ele>
        <time>2025-04-09T10:14:27Z</time>
      </trkpt>
      <trkpt lat="43.64377" lon="1.38615">
        <ele>141</ele>
        <time>2025-04-09T10:14:28Z</time>
      </trkpt>
      <trkpt lat="43.64374" lon="1.38617">
        <ele>141</ele>
        <time>2025-04-09T10:14:29Z</time>
      </trkpt>
      <trkpt lat="43.64372" lon="1.38619">
        <ele>141</ele>
        <time>2025-04-09T10:14:30Z</time>
      </trkpt>
      <trkpt lat="43.64369" lon="1.38621">
        <ele>141</ele>
        <time>2025-04-09T10:14:31Z</time>
      </trkpt>
      <trkpt lat="43.64367" lon="1.38623">
        <ele>141</ele>
        <time>2025-04-09T10:14:32Z</time>
      </trkpt>
      <trkpt lat="43.64367" lon="1.38623">
        <ele>141</ele>
        <time>2025-04-09T10:14:33Z</time>
      </trkpt>
      <trkpt lat="43.64362" lon="1.38627">
        <ele>141</ele>
        <time>2025-04-09T10:14:34Z</time>
      </trkpt>
      <trkpt lat="43.64359" lon="1.38629">
        <ele>141</ele>
        <time>2025-04-09T10:14:35Z</time>
      </trkpt>
      <trkpt lat="43.64356" lon="1.38631">
        <ele>141</ele>
        <time>2025-04-09T10:14:36Z</time>
      </trkpt>
      <trkpt lat="43.64353" lon="1.38632">
        <ele>141</ele>
        <time>2025-04-09T10:14:37Z</time>
      </trkpt>
      <trkpt lat="43.64351" lon="1.38634">
        <ele>141</ele>
        <time>2025-04-09T10:14:38Z</time>
      </trkpt>
      <trkpt lat="43.64349" lon="1.38635">
        <ele>141</ele>
        <time>2025-04-09T10:14:39Z</time>
      </trkpt>
      <trkpt lat="43.64347" lon="1.38636">
        <ele>141</ele>
        <time>2025-04-09T10:14:40Z</time>
      </trkpt>
      <trkpt lat="43.64345" lon="1.38637">
        <ele>141</ele>
        <time>2025-04-09T10:14:41Z</time>
      </trkpt>
      <trkpt lat="43.64342" lon="1.38639">
        <ele>141</ele>
        <time>2025-04-09T10:14:42Z</time>
      </trkpt>
      <trkpt lat="43.6434" lon="1.3864">
        <ele>141</ele>
        <time>2025-04-09T10:14:43Z</time>
      </trkpt>
      <trkpt lat="43.64338" lon="1.38642">
        <ele>141</ele>
        <time>2025-04-09T10:14:44Z</time>
      </trkpt>
      <trkpt lat="43.64336" lon="1.38643">
        <ele>141</ele>
        <time>2025-04-09T10:14:45Z</time>
      </trkpt>
      <trkpt lat="43.64334" lon="1.38645">
        <ele>141</ele>
        <time>2025-04-09T10:14:46Z</time>
      </trkpt>
      <trkpt lat="43.64332" lon="1.38646">
        <ele>141</ele>
        <time>2025-04-09T10:14:47Z</time>
      </trkpt>
      <trkpt lat="43.6433" lon="1.38648">
        <ele>141</ele>
        <time>2025-04-09T10:14:48Z</time>
      </trkpt>
      <trkpt lat="43.64328" lon="1.38649">
        <ele>141</ele>
        <time>2025-04-09T10:14:49Z</time>
      </trkpt>
      <trkpt lat="43.64326" lon="1.3865">
        <ele>141</ele>
        <time>2025-04-09T10:14:50Z</time>
      </trkpt>
      <trkpt lat="43.64323" lon="1.38652">
        <ele>141</ele>
        <time>2025-04-09T10:14:51Z</time>
      </trkpt>
      <trkpt lat="43.64323" lon="1.38652">
        <ele>141</ele>
        <time>2025-04-09T10:14:52Z</time>
      </trkpt>
      <trkpt lat="43.64318" lon="1.38655">
        <ele>141</ele>
        <time>2025-04-09T10:14:53Z</time>
      </trkpt>
      <trkpt lat="43.64316" lon="1.38657">
        <ele>141</ele>
        <time>2025-04-09T10:14:54Z</time>
      </trkpt>
      <trkpt lat="43.64314" lon="1.38658">
        <ele>141</ele>
        <time>2025-04-09T10:14:55Z</time>
      </trkpt>
      <trkpt lat="43.64311" lon="1.38659">
        <ele>141</ele>
        <time>2025-04-09T10:14:56Z</time>
      </trkpt>
      <trkpt lat="43.64309" lon="1.38661">
        <ele>141</ele>
        <time>2025-04-09T10:14:57Z</time>
      </trkpt>
      <trkpt lat="43.64307" lon="1.38663">
        <ele>141</ele>
        <time>2025-04-09T10:14:58Z</time>
      </trkpt>
      <trkpt lat="43.64304" lon="1.38664">
        <ele>141</ele>
        <time>2025-04-09T10:14:59Z</time>
      </trkpt>
      <trkpt lat="43.64302" lon="1.38666">
        <ele>141</ele>
        <time>2025-04-09T10:15:00Z</time>
      </trkpt>
      <trkpt lat="43.64299" lon="1.38668">
        <ele>141</ele>
        <time>2025-04-09T10:15:01Z</time>
      </trkpt>
      <trkpt lat="43.64296" lon="1.3867">
        <ele>141</ele>
        <time>2025-04-09T10:15:02Z</time>
      </trkpt>
      <trkpt lat="43.64294" lon="1.38672">
        <ele>141</ele>
        <time>2025-04-09T10:15:03Z</time>
      </trkpt>
      <trkpt lat="43.64292" lon="1.38673">
        <ele>141</ele>
        <time>2025-04-09T10:15:04Z</time>
      </trkpt>
      <trkpt lat="43.64289" lon="1.38675">
        <ele>141</ele>
        <time>2025-04-09T10:15:05Z</time>
      </trkpt>
      <trkpt lat="43.64287" lon="1.38676">
        <ele>141</ele>
        <time>2025-04-09T10:15:06Z</time>
      </trkpt>
      <trkpt lat="43.64284" lon="1.38678">
        <ele>141</ele>
        <time>2025-04-09T10:15:07Z</time>
      </trkpt>
      <trkpt lat="43.64282" lon="1.38679">
        <ele>141</ele>
        <time>2025-04-09T10:15:08Z</time>
      </trkpt>
      <trkpt lat="43.6428" lon="1.38681">
        <ele>141</ele>
        <time>2025-04-09T10:15:09Z</time>
      </trkpt>
      <trkpt lat="43.64277" lon="1.38682">
        <ele>141</ele>
        <time>2025-04-09T10:15:10Z</time>
      </trkpt>
      <trkpt lat="43.64277" lon="1.38682">
        <ele>141</ele>
        <time>2025-04-09T10:15:11Z</time>
      </trkpt>
      <trkpt lat="43.64272" lon="1.38683">
        <ele>141</ele>
        <time>2025-04-09T10:15:12Z</time>
      </trkpt>
      <trkpt lat="43.6427" lon="1.38684">
        <ele>141</ele>
        <time>2025-04-09T10:15:13Z</time>
      </trkpt>
      <trkpt lat="43.64267" lon="1.38685">
        <ele>141</ele>
        <time>2025-04-09T10:15:14Z</time>
      </trkpt>
      <trkpt lat="43.64264" lon="1.38684">
        <ele>141</ele>
        <time>2025-04-09T10:15:15Z</time>
      </trkpt>
      <trkpt lat="43.64262" lon="1.38684">
        <ele>141</ele>
        <time>2025-04-09T10:15:16Z</time>
      </trkpt>
      <trkpt lat="43.64259" lon="1.38683">
        <ele>141</ele>
        <time>2025-04-09T10:15:17Z</time>
      </trkpt>
      <trkpt lat="43.64257" lon="1.38682">
        <ele>141</ele>
        <time>2025-04-09T10:15:18Z</time>
      </trkpt>
      <trkpt lat="43.64254" lon="1.3868">
        <ele>141</ele>
        <time>2025-04-09T10:15:19Z</time>
      </trkpt>
      <trkpt lat="43.64252" lon="1.38677">
        <ele>141</ele>
        <time>2025-04-09T10:15:20Z</time>
      </trkpt>
      <trkpt lat="43.64251" lon="1.38675">
        <ele>141</ele>
        <time>2025-04-09T10:15:21Z</time>
      </trkpt>
      <trkpt lat="43.6425" lon="1.38671">
        <ele>141</ele>
        <time>2025-04-09T10:15:22Z</time>
      </trkpt>
      <trkpt lat="43.64249" lon="1.38668">
        <ele>141</ele>
        <time>2025-04-09T10:15:23Z</time>
      </trkpt>
      <trkpt lat="43.64247" lon="1.38665">
        <ele>141</ele>
        <time>2025-04-09T10:15:24Z</time>
      </trkpt>
      <trkpt lat="43.64246" lon="1.38661">
        <ele>140</ele>
        <time>2025-04-09T10:15:25Z</time>
      </trkpt>
      <trkpt lat="43.64245" lon="1.38658">
        <ele>140</ele>
        <time>2025-04-09T10:15:26Z</time>
      </trkpt>
      <trkpt lat="43.64244" lon="1.38654">
        <ele>140</ele>
        <time>2025-04-09T10:15:27Z</time>
      </trkpt>
      <trkpt lat="43.64243" lon="1.38651">
        <ele>140</ele>
        <time>2025-04-09T10:15:28Z</time>
      </trkpt>
      <trkpt lat="43.64241" lon="1.38649">
        <ele>140</ele>
        <time>2025-04-09T10:15:29Z</time>
      </trkpt>
      <trkpt lat="43.6424" lon="1.38645">
        <ele>140</ele>
        <time>2025-04-09T10:15:30Z</time>
      </trkpt>
      <trkpt lat="43.64239" lon="1.38642">
        <ele>140</ele>
        <time>2025-04-09T10:15:31Z</time>
      </trkpt>
      <trkpt lat="43.64237" lon="1.38639">
        <ele>140</ele>
        <time>2025-04-09T10:15:32Z</time>
      </trkpt>
      <trkpt lat="43.64236" lon="1.38636">
        <ele>140</ele>
        <time>2025-04-09T10:15:33Z</time>
      </trkpt>
      <trkpt lat="43.64235" lon="1.38634">
        <ele>141</ele>
        <time>2025-04-09T10:15:34Z</time>
      </trkpt>
      <trkpt lat="43.64234" lon="1.38631">
        <ele>141</ele>
        <time>2025-04-09T10:15:35Z</time>
      </trkpt>
      <trkpt lat="43.64233" lon="1.38628">
        <ele>141</ele>
        <time>2025-04-09T10:15:36Z</time>
      </trkpt>
      <trkpt lat="43.64232" lon="1.38624">
        <ele>141</ele>
        <time>2025-04-09T10:15:37Z</time>
      </trkpt>
      <trkpt lat="43.64231" lon="1.38621">
        <ele>141</ele>
        <time>2025-04-09T10:15:38Z</time>
      </trkpt>
      <trkpt lat="43.6423" lon="1.38618">
        <ele>141</ele>
        <time>2025-04-09T10:15:39Z</time>
      </trkpt>
      <trkpt lat="43.64229" lon="1.38615">
        <ele>141</ele>
        <time>2025-04-09T10:15:40Z</time>
      </trkpt>
      <trkpt lat="43.64228" lon="1.38611">
        <ele>141</ele>
        <time>2025-04-09T10:15:41Z</time>
      </trkpt>
      <trkpt lat="43.64227" lon="1.38608">
        <ele>141</ele>
        <time>2025-04-09T10:15:42Z</time>
      </trkpt>
      <trkpt lat="43.64225" lon="1.38605">
        <ele>140</ele>
        <time>2025-04-09T10:15:43Z</time>
      </trkpt>
      <trkpt lat="43.64224" lon="1.38601">
        <ele>140</ele>
        <time>2025-04-09T10:15:44Z</time>
      </trkpt>
      <trkpt lat="43.64223" lon="1.38598">
        <ele>140</ele>
        <time>2025-04-09T10:15:45Z</time>
      </trkpt>
      <trkpt lat="43.64222" lon="1.38595">
        <ele>141</ele>
        <time>2025-04-09T10:15:46Z</time>
      </trkpt>
      <trkpt lat="43.64221" lon="1.38591">
        <ele>141</ele>
        <time>2025-04-09T10:15:47Z</time>
      </trkpt>
      <trkpt lat="43.6422" lon="1.38587">
        <ele>141</ele>
        <time>2025-04-09T10:15:48Z</time>
      </trkpt>
      <trkpt lat="43.6422" lon="1.38587">
        <ele>140</ele>
        <time>2025-04-09T10:15:49Z</time>
      </trkpt>
      <trkpt lat="43.64217" lon="1.38581">
        <ele>140</ele>
        <time>2025-04-09T10:15:50Z</time>
      </trkpt>
      <trkpt lat="43.64215" lon="1.38579">
        <ele>140</ele>
        <time>2025-04-09T10:15:51Z</time>
      </trkpt>
      <trkpt lat="43.64214" lon="1.38576">
        <ele>140</ele>
        <time>2025-04-09T10:15:52Z</time>
      </trkpt>
      <trkpt lat="43.64212" lon="1.38573">
        <ele>140</ele>
        <time>2025-04-09T10:15:53Z</time>
      </trkpt>
      <trkpt lat="43.64211" lon="1.3857">
        <ele>140</ele>
        <time>2025-04-09T10:15:54Z</time>
      </trkpt>
      <trkpt lat="43.64209" lon="1.38567">
        <ele>140</ele>
        <time>2025-04-09T10:15:55Z</time>
      </trkpt>
      <trkpt lat="43.64208" lon="1.38564">
        <ele>140</ele>
        <time>2025-04-09T10:15:56Z</time>
      </trkpt>
      <trkpt lat="43.64207" lon="1.38561">
        <ele>140</ele>
        <time>2025-04-09T10:15:57Z</time>
      </trkpt>
      <trkpt lat="43.64206" lon="1.38557">
        <ele>141</ele>
        <time>2025-04-09T10:15:58Z</time>
      </trkpt>
      <trkpt lat="43.64204" lon="1.38554">
        <ele>141</ele>
        <time>2025-04-09T10:15:59Z</time>
      </trkpt>
      <trkpt lat="43.64203" lon="1.3855">
        <ele>141</ele>
        <time>2025-04-09T10:16:00Z</time>
      </trkpt>
      <trkpt lat="43.64202" lon="1.38547">
        <ele>141</ele>
        <time>2025-04-09T10:16:01Z</time>
      </trkpt>
      <trkpt lat="43.64201" lon="1.38543">
        <ele>141</ele>
        <time>2025-04-09T10:16:02Z</time>
      </trkpt>
      <trkpt lat="43.642" lon="1.3854">
        <ele>141</ele>
        <time>2025-04-09T10:16:03Z</time>
      </trkpt>
      <trkpt lat="43.64199" lon="1.38537">
        <ele>141</ele>
        <time>2025-04-09T10:16:04Z</time>
      </trkpt>
      <trkpt lat="43.64198" lon="1.38534">
        <ele>141</ele>
        <time>2025-04-09T10:16:05Z</time>
      </trkpt>
      <trkpt lat="43.64197" lon="1.3853">
        <ele>141</ele>
        <time>2025-04-09T10:16:06Z</time>
      </trkpt>
      <trkpt lat="43.64197" lon="1.38527">
        <ele>141</ele>
        <time>2025-04-09T10:16:07Z</time>
      </trkpt>
      <trkpt lat="43.64197" lon="1.38527">
        <ele>141</ele>
        <time>2025-04-09T10:16:08Z</time>
      </trkpt>
      <trkpt lat="43.64195" lon="1.38521">
        <ele>141</ele>
        <time>2025-04-09T10:16:09Z</time>
      </trkpt>
      <trkpt lat="43.64194" lon="1.38517">
        <ele>141</ele>
        <time>2025-04-09T10:16:10Z</time>
      </trkpt>
      <trkpt lat="43.64193" lon="1.38514">
        <ele>141</ele>
        <time>2025-04-09T10:16:11Z</time>
      </trkpt>
      <trkpt lat="43.64192" lon="1.38511">
        <ele>141</ele>
        <time>2025-04-09T10:16:12Z</time>
      </trkpt>
      <trkpt lat="43.64191" lon="1.38508">
        <ele>141</ele>
        <time>2025-04-09T10:16:13Z</time>
      </trkpt>
      <trkpt lat="43.6419" lon="1.38505">
        <ele>141</ele>
        <time>2025-04-09T10:16:14Z</time>
      </trkpt>
      <trkpt lat="43.64189" lon="1.38501">
        <ele>141</ele>
        <time>2025-04-09T10:16:15Z</time>
      </trkpt>
      <trkpt lat="43.64188" lon="1.38498">
        <ele>141</ele>
        <time>2025-04-09T10:16:16Z</time>
      </trkpt>
      <trkpt lat="43.64188" lon="1.38498">
        <ele>141</ele>
        <time>2025-04-09T10:16:17Z</time>
      </trkpt>
      <trkpt lat="43.64186" lon="1.38492">
        <ele>141</ele>
        <time>2025-04-09T10:16:18Z</time>
      </trkpt>
      <trkpt lat="43.64185" lon="1.38489">
        <ele>141</ele>
        <time>2025-04-09T10:16:19Z</time>
      </trkpt>
      <trkpt lat="43.64185" lon="1.38486">
        <ele>141</ele>
        <time>2025-04-09T10:16:20Z</time>
      </trkpt>
      <trkpt lat="43.64184" lon="1.38482">
        <ele>141</ele>
        <time>2025-04-09T10:16:21Z</time>
      </trkpt>
      <trkpt lat="43.64184" lon="1.38479">
        <ele>141</ele>
        <time>2025-04-09T10:16:22Z</time>
      </trkpt>
      <trkpt lat="43.64185" lon="1.38476">
        <ele>141</ele>
        <time>2025-04-09T10:16:23Z</time>
      </trkpt>
      <trkpt lat="43.64185" lon="1.38473">
        <ele>141</ele>
        <time>2025-04-09T10:16:24Z</time>
      </trkpt>
      <trkpt lat="43.64186" lon="1.3847">
        <ele>141</ele>
        <time>2025-04-09T10:16:25Z</time>
      </trkpt>
      <trkpt lat="43.64187" lon="1.38467">
        <ele>141</ele>
        <time>2025-04-09T10:16:26Z</time>
      </trkpt>
      <trkpt lat="43.64187" lon="1.38467">
        <ele>141</ele>
        <time>2025-04-09T10:16:27Z</time>
      </trkpt>
      <trkpt lat="43.64188" lon="1.3846">
        <ele>141</ele>
        <time>2025-04-09T10:16:28Z</time>
      </trkpt>
      <trkpt lat="43.64188" lon="1.38457">
        <ele>141</ele>
        <time>2025-04-09T10:16:29Z</time>
      </trkpt>
      <trkpt lat="43.64188" lon="1.38453">
        <ele>141</ele>
        <time>2025-04-09T10:16:30Z</time>
      </trkpt>
      <trkpt lat="43.64189" lon="1.3845">
        <ele>141</ele>
        <time>2025-04-09T10:16:31Z</time>
      </trkpt>
      <trkpt lat="43.64189" lon="1.38447">
        <ele>141</ele>
        <time>2025-04-09T10:16:32Z</time>
      </trkpt>
      <trkpt lat="43.64189" lon="1.38444">
        <ele>141</ele>
        <time>2025-04-09T10:16:33Z</time>
      </trkpt>
      <trkpt lat="43.64187" lon="1.38441">
        <ele>141</ele>
        <time>2025-04-09T10:16:34Z</time>
      </trkpt>
      <trkpt lat="43.64185" lon="1.38438">
        <ele>141</ele>
        <time>2025-04-09T10:16:35Z</time>
      </trkpt>
      <trkpt lat="43.64182" lon="1.38435">
        <ele>141</ele>
        <time>2025-04-09T10:16:36Z</time>
      </trkpt>
      <trkpt lat="43.6418" lon="1.38434">
        <ele>141</ele>
        <time>2025-04-09T10:16:37Z</time>
      </trkpt>
      <trkpt lat="43.64178" lon="1.38434">
        <ele>141</ele>
        <time>2025-04-09T10:16:38Z</time>
      </trkpt>
      <trkpt lat="43.64175" lon="1.38434">
        <ele>141</ele>
        <time>2025-04-09T10:16:39Z</time>
      </trkpt>
      <trkpt lat="43.64173" lon="1.38433">
        <ele>142</ele>
        <time>2025-04-09T10:16:40Z</time>
      </trkpt>
      <trkpt lat="43.6417" lon="1.38431">
        <ele>143</ele>
        <time>2025-04-09T10:16:41Z</time>
      </trkpt>
      <trkpt lat="43.64168" lon="1.3843">
        <ele>143</ele>
        <time>2025-04-09T10:16:42Z</time>
      </trkpt>
      <trkpt lat="43.64166" lon="1.38428">
        <ele>143</ele>
        <time>2025-04-09T10:16:43Z</time>
      </trkpt>
      <trkpt lat="43.64164" lon="1.38425">
        <ele>143</ele>
        <time>2025-04-09T10:16:44Z</time>
      </trkpt>
      <trkpt lat="43.64162" lon="1.38423">
        <ele>143</ele>
        <time>2025-04-09T10:16:45Z</time>
      </trkpt>
      <trkpt lat="43.64162" lon="1.38423">
        <ele>142</ele>
        <time>2025-04-09T10:16:46Z</time>
      </trkpt>
      <trkpt lat="43.64157" lon="1.38418">
        <ele>142</ele>
        <time>2025-04-09T10:16:47Z</time>
      </trkpt>
      <trkpt lat="43.64155" lon="1.38416">
        <ele>142</ele>
        <time>2025-04-09T10:16:48Z</time>
      </trkpt>
      <trkpt lat="43.64154" lon="1.38413">
        <ele>142</ele>
        <time>2025-04-09T10:16:49Z</time>
      </trkpt>
      <trkpt lat="43.64152" lon="1.38411">
        <ele>142</ele>
        <time>2025-04-09T10:16:50Z</time>
      </trkpt>
      <trkpt lat="43.64151" lon="1.38409">
        <ele>142</ele>
        <time>2025-04-09T10:16:51Z</time>
      </trkpt>
      <trkpt lat="43.64149" lon="1.38407">
        <ele>142</ele>
        <time>2025-04-09T10:16:52Z</time>
      </trkpt>
      <trkpt lat="43.64147" lon="1.38405">
        <ele>142</ele>
        <time>2025-04-09T10:16:53Z</time>
      </trkpt>
      <trkpt lat="43.64145" lon="1.38403">
        <ele>142</ele>
        <time>2025-04-09T10:16:54Z</time>
      </trkpt>
      <trkpt lat="43.64143" lon="1.38401">
        <ele>142</ele>
        <time>2025-04-09T10:16:55Z</time>
      </trkpt>
      <trkpt lat="43.64141" lon="1.38399">
        <ele>142</ele>
        <time>2025-04-09T10:16:56Z</time>
      </trkpt>
      <trkpt lat="43.64141" lon="1.38399">
        <ele>141</ele>
        <time>2025-04-09T10:16:57Z</time>
      </trkpt>
      <trkpt lat="43.64137" lon="1.38394">
        <ele>141</ele>
        <time>2025-04-09T10:16:58Z</time>
      </trkpt>
      <trkpt lat="43.64136" lon="1.38392">
        <ele>141</ele>
        <time>2025-04-09T10:16:59Z</time>
      </trkpt>
      <trkpt lat="43.64134" lon="1.38389">
        <ele>141</ele>
        <time>2025-04-09T10:17:00Z</time>
      </trkpt>
      <trkpt lat="43.64132" lon="1.38386">
        <ele>141</ele>
        <time>2025-04-09T10:17:01Z</time>
      </trkpt>
      <trkpt lat="43.6413" lon="1.38383">
        <ele>142</ele>
        <time>2025-04-09T10:17:02Z</time>
      </trkpt>
      <trkpt lat="43.64128" lon="1.3838">
        <ele>142</ele>
        <time>2025-04-09T10:17:03Z</time>
      </trkpt>
      <trkpt lat="43.64127" lon="1.38377">
        <ele>142</ele>
        <time>2025-04-09T10:17:04Z</time>
      </trkpt>
      <trkpt lat="43.64127" lon="1.38377">
        <ele>142</ele>
        <time>2025-04-09T10:17:05Z</time>
      </trkpt>
      <trkpt lat="43.64123" lon="1.38371">
        <ele>142</ele>
        <time>2025-04-09T10:17:06Z</time>
      </trkpt>
      <trkpt lat="43.64121" lon="1.38368">
        <ele>142</ele>
        <time>2025-04-09T10:17:07Z</time>
      </trkpt>
      <trkpt lat="43.6412" lon="1.38366">
        <ele>142</ele>
        <time>2025-04-09T10:17:08Z</time>
      </trkpt>
      <trkpt lat="43.64118" lon="1.38364">
        <ele>142</ele>
        <time>2025-04-09T10:17:09Z</time>
      </trkpt>
      <trkpt lat="43.64116" lon="1.38361">
        <ele>142</ele>
        <time>2025-04-09T10:17:10Z</time>
      </trkpt>
      <trkpt lat="43.64113" lon="1.38359">
        <ele>142</ele>
        <time>2025-04-09T10:17:11Z</time>
      </trkpt>
      <trkpt lat="43.64112" lon="1.38357">
        <ele>142</ele>
        <time>2025-04-09T10:17:12Z</time>
      </trkpt>
      <trkpt lat="43.6411" lon="1.38355">
        <ele>141</ele>
        <time>2025-04-09T10:17:13Z</time>
      </trkpt>
      <trkpt lat="43.64108" lon="1.38353">
        <ele>141</ele>
        <time>2025-04-09T10:17:14Z</time>
      </trkpt>
      <trkpt lat="43.64106" lon="1.3835">
        <ele>142</ele>
        <time>2025-04-09T10:17:15Z</time>
      </trkpt>
      <trkpt lat="43.64104" lon="1.38348">
        <ele>142</ele>
        <time>2025-04-09T10:17:16Z</time>
      </trkpt>
      <trkpt lat="43.64103" lon="1.38345">
        <ele>142</ele>
        <time>2025-04-09T10:17:17Z</time>
      </trkpt>
      <trkpt lat="43.64102" lon="1.38342">
        <ele>142</ele>
        <time>2025-04-09T10:17:18Z</time>
      </trkpt>
      <trkpt lat="43.641" lon="1.38339">
        <ele>142</ele>
        <time>2025-04-09T10:17:19Z</time>
      </trkpt>
      <trkpt lat="43.64098" lon="1.38336">
        <ele>142</ele>
        <time>2025-04-09T10:17:20Z</time>
      </trkpt>
      <trkpt lat="43.64097" lon="1.38333">
        <ele>142</ele>
        <time>2025-04-09T10:17:21Z</time>
      </trkpt>
      <trkpt lat="43.64095" lon="1.38331">
        <ele>142</ele>
        <time>2025-04-09T10:17:22Z</time>
      </trkpt>
      <trkpt lat="43.64094" lon="1.38329">
        <ele>142</ele>
        <time>2025-04-09T10:17:23Z</time>
      </trkpt>
      <trkpt lat="43.64094" lon="1.38329">
        <ele>142</ele>
        <time>2025-04-09T10:17:24Z</time>
      </trkpt>
      <trkpt lat="43.6409" lon="1.38323">
        <ele>142</ele>
        <time>2025-04-09T10:17:25Z</time>
      </trkpt>
      <trkpt lat="43.64088" lon="1.3832">
        <ele>142</ele>
        <time>2025-04-09T10:17:26Z</time>
      </trkpt>
      <trkpt lat="43.64087" lon="1.38318">
        <ele>142</ele>
        <time>2025-04-09T10:17:27Z</time>
      </trkpt>
      <trkpt lat="43.64085" lon="1.38315">
        <ele>142</ele>
        <time>2025-04-09T10:17:28Z</time>
      </trkpt>
      <trkpt lat="43.64083" lon="1.38312">
        <ele>142</ele>
        <time>2025-04-09T10:17:29Z</time>
      </trkpt>
      <trkpt lat="43.64081" lon="1.3831">
        <ele>142</ele>
        <time>2025-04-09T10:17:30Z</time>
      </trkpt>
      <trkpt lat="43.64079" lon="1.38307">
        <ele>142</ele>
        <time>2025-04-09T10:17:31Z</time>
      </trkpt>
      <trkpt lat="43.64078" lon="1.38304">
        <ele>142</ele>
        <time>2025-04-09T10:17:32Z</time>
      </trkpt>
      <trkpt lat="43.64076" lon="1.38302">
        <ele>142</ele>
        <time>2025-04-09T10:17:33Z</time>
      </trkpt>
      <trkpt lat="43.64074" lon="1.383">
        <ele>142</ele>
        <time>2025-04-09T10:17:34Z</time>
      </trkpt>
      <trkpt lat="43.64073" lon="1.38297">
        <ele>142</ele>
        <time>2025-04-09T10:17:35Z</time>
      </trkpt>
      <trkpt lat="43.64071" lon="1.38295">
        <ele>142</ele>
        <time>2025-04-09T10:17:36Z</time>
      </trkpt>
      <trkpt lat="43.64069" lon="1.38292">
        <ele>142</ele>
        <time>2025-04-09T10:17:37Z</time>
      </trkpt>
      <trkpt lat="43.64066" lon="1.3829">
        <ele>141</ele>
        <time>2025-04-09T10:17:38Z</time>
      </trkpt>
      <trkpt lat="43.64064" lon="1.38286">
        <ele>141</ele>
        <time>2025-04-09T10:17:39Z</time>
      </trkpt>
      <trkpt lat="43.64064" lon="1.38282">
        <ele>141</ele>
        <time>2025-04-09T10:17:40Z</time>
      </trkpt>
      <trkpt lat="43.64063" lon="1.38277">
        <ele>141</ele>
        <time>2025-04-09T10:17:41Z</time>
      </trkpt>
      <trkpt lat="43.64063" lon="1.38273">
        <ele>141</ele>
        <time>2025-04-09T10:17:42Z</time>
      </trkpt>
      <trkpt lat="43.64063" lon="1.38273">
        <ele>141</ele>
        <time>2025-04-09T10:17:43Z</time>
      </trkpt>
      <trkpt lat="43.64061" lon="1.38265">
        <ele>141</ele>
        <time>2025-04-09T10:17:44Z</time>
      </trkpt>
      <trkpt lat="43.64061" lon="1.38262">
        <ele>141</ele>
        <time>2025-04-09T10:17:45Z</time>
      </trkpt>
      <trkpt lat="43.6406" lon="1.38258">
        <ele>141</ele>
        <time>2025-04-09T10:17:46Z</time>
      </trkpt>
      <trkpt lat="43.6406" lon="1.38254">
        <ele>141</ele>
        <time>2025-04-09T10:17:47Z</time>
      </trkpt>
      <trkpt lat="43.64059" lon="1.3825">
        <ele>141</ele>
        <time>2025-04-09T10:17:48Z</time>
      </trkpt>
      <trkpt lat="43.64058" lon="1.38247">
        <ele>141</ele>
        <time>2025-04-09T10:17:49Z</time>
      </trkpt>
      <trkpt lat="43.64057" lon="1.38245">
        <ele>141</ele>
        <time>2025-04-09T10:17:50Z</time>
      </trkpt>
      <trkpt lat="43.64056" lon="1.38243">
        <ele>141</ele>
        <time>2025-04-09T10:17:51Z</time>
      </trkpt>
      <trkpt lat="43.64054" lon="1.38242">
        <ele>141</ele>
        <time>2025-04-09T10:17:52Z</time>
      </trkpt>
      <trkpt lat="43.64051" lon="1.38242">
        <ele>141</ele>
        <time>2025-04-09T10:17:53Z</time>
      </trkpt>
      <trkpt lat="43.64051" lon="1.38242">
        <ele>141</ele>
        <time>2025-04-09T10:17:54Z</time>
      </trkpt>
      <trkpt lat="43.64046" lon="1.38245">
        <ele>141</ele>
        <time>2025-04-09T10:17:55Z</time>
      </trkpt>
      <trkpt lat="43.64044" lon="1.38248">
        <ele>141</ele>
        <time>2025-04-09T10:17:56Z</time>
      </trkpt>
      <trkpt lat="43.64042" lon="1.3825">
        <ele>142</ele>
        <time>2025-04-09T10:17:57Z</time>
      </trkpt>
      <trkpt lat="43.64042" lon="1.3825">
        <ele>142</ele>
        <time>2025-04-09T10:17:58Z</time>
      </trkpt>
      <trkpt lat="43.64039" lon="1.38254">
        <ele>142</ele>
        <time>2025-04-09T10:17:59Z</time>
      </trkpt>
      <trkpt lat="43.64037" lon="1.38256">
        <ele>142</ele>
        <time>2025-04-09T10:18:00Z</time>
      </trkpt>
      <trkpt lat="43.64034" lon="1.38257">
        <ele>142</ele>
        <time>2025-04-09T10:18:01Z</time>
      </trkpt>
      <trkpt lat="43.64034" lon="1.38257">
        <ele>142</ele>
        <time>2025-04-09T10:18:02Z</time>
      </trkpt>
      <trkpt lat="43.6403" lon="1.38259">
        <ele>142</ele>
        <time>2025-04-09T10:18:03Z</time>
      </trkpt>
      <trkpt lat="43.64027" lon="1.3826">
        <ele>142</ele>
        <time>2025-04-09T10:18:04Z</time>
      </trkpt>
      <trkpt lat="43.64027" lon="1.3826">
        <ele>142</ele>
        <time>2025-04-09T10:18:05Z</time>
      </trkpt>
      <trkpt lat="43.64023" lon="1.38261">
        <ele>142</ele>
        <time>2025-04-09T10:18:06Z</time>
      </trkpt>
      <trkpt lat="43.64021" lon="1.38261">
        <ele>142</ele>
        <time>2025-04-09T10:18:07Z</time>
      </trkpt>
      <trkpt lat="43.64019" lon="1.38262">
        <ele>142</ele>
        <time>2025-04-09T10:18:08Z</time>
      </trkpt>
      <trkpt lat="43.64017" lon="1.38262">
        <ele>142</ele>
        <time>2025-04-09T10:18:09Z</time>
      </trkpt>
      <trkpt lat="43.64014" lon="1.38263">
        <ele>142</ele>
        <time>2025-04-09T10:18:10Z</time>
      </trkpt>
      <trkpt lat="43.64012" lon="1.38263">
        <ele>142</ele>
        <time>2025-04-09T10:18:11Z</time>
      </trkpt>
      <trkpt lat="43.6401" lon="1.38264">
        <ele>142</ele>
        <time>2025-04-09T10:18:12Z</time>
      </trkpt>
      <trkpt lat="43.64007" lon="1.38264">
        <ele>142</ele>
        <time>2025-04-09T10:18:13Z</time>
      </trkpt>
      <trkpt lat="43.64005" lon="1.38265">
        <ele>142</ele>
        <time>2025-04-09T10:18:14Z</time>
      </trkpt>
      <trkpt lat="43.64005" lon="1.38265">
        <ele>142</ele>
        <time>2025-04-09T10:18:15Z</time>
      </trkpt>
      <trkpt lat="43.64001" lon="1.38267">
        <ele>142</ele>
        <time>2025-04-09T10:18:16Z</time>
      </trkpt>
      <trkpt lat="43.63997" lon="1.38268">
        <ele>142</ele>
        <time>2025-04-09T10:18:17Z</time>
      </trkpt>
      <trkpt lat="43.63994" lon="1.38269">
        <ele>142</ele>
        <time>2025-04-09T10:18:18Z</time>
      </trkpt>
      <trkpt lat="43.6399" lon="1.38271">
        <ele>142</ele>
        <time>2025-04-09T10:18:19Z</time>
      </trkpt>
      <trkpt lat="43.63987" lon="1.38272">
        <ele>142</ele>
        <time>2025-04-09T10:18:20Z</time>
      </trkpt>
      <trkpt lat="43.63984" lon="1.38273">
        <ele>142</ele>
        <time>2025-04-09T10:18:21Z</time>
      </trkpt>
      <trkpt lat="43.63982" lon="1.38274">
        <ele>142</ele>
        <time>2025-04-09T10:18:22Z</time>
      </trkpt>
      <trkpt lat="43.63979" lon="1.38275">
        <ele>142</ele>
        <time>2025-04-09T10:18:23Z</time>
      </trkpt>
      <trkpt lat="43.63976" lon="1.38276">
        <ele>142</ele>
        <time>2025-04-09T10:18:24Z</time>
      </trkpt>
      <trkpt lat="43.63974" lon="1.38277">
        <ele>141</ele>
        <time>2025-04-09T10:18:25Z</time>
      </trkpt>
      <trkpt lat="43.63972" lon="1.38278">
        <ele>141</ele>
        <time>2025-04-09T10:18:26Z</time>
      </trkpt>
      <trkpt lat="43.6397" lon="1.38278">
        <ele>142</ele>
        <time>2025-04-09T10:18:27Z</time>
      </trkpt>
      <trkpt lat="43.63968" lon="1.38279">
        <ele>142</ele>
        <time>2025-04-09T10:18:28Z</time>
      </trkpt>
      <trkpt lat="43.63966" lon="1.38279">
        <ele>142</ele>
        <time>2025-04-09T10:18:29Z</time>
      </trkpt>
      <trkpt lat="43.63964" lon="1.3828">
        <ele>142</ele>
        <time>2025-04-09T10:18:30Z</time>
      </trkpt>
      <trkpt lat="43.63961" lon="1.38281">
        <ele>142</ele>
        <time>2025-04-09T10:18:31Z</time>
      </trkpt>
      <trkpt lat="43.63959" lon="1.38282">
        <ele>142</ele>
        <time>2025-04-09T10:18:32Z</time>
      </trkpt>
      <trkpt lat="43.63956" lon="1.38283">
        <ele>142</ele>
        <time>2025-04-09T10:18:33Z</time>
      </trkpt>
      <trkpt lat="43.63953" lon="1.38284">
        <ele>142</ele>
        <time>2025-04-09T10:18:34Z</time>
      </trkpt>
      <trkpt lat="43.63951" lon="1.38285">
        <ele>142</ele>
        <time>2025-04-09T10:18:35Z</time>
      </trkpt>
      <trkpt lat="43.63949" lon="1.38287">
        <ele>142</ele>
        <time>2025-04-09T10:18:36Z</time>
      </trkpt>
      <trkpt lat="43.63946" lon="1.38288">
        <ele>142</ele>
        <time>2025-04-09T10:18:37Z</time>
      </trkpt>
      <trkpt lat="43.63943" lon="1.38289">
        <ele>142</ele>
        <time>2025-04-09T10:18:38Z</time>
      </trkpt>
      <trkpt lat="43.63941" lon="1.3829">
        <ele>142</ele>
        <time>2025-04-09T10:18:39Z</time>
      </trkpt>
      <trkpt lat="43.63939" lon="1.38291">
        <ele>142</ele>
        <time>2025-04-09T10:18:40Z</time>
      </trkpt>
      <trkpt lat="43.63936" lon="1.38291">
        <ele>142</ele>
        <time>2025-04-09T10:18:41Z</time>
      </trkpt>
      <trkpt lat="43.63933" lon="1.38292">
        <ele>142</ele>
        <time>2025-04-09T10:18:42Z</time>
      </trkpt>
      <trkpt lat="43.6393" lon="1.38293">
        <ele>142</ele>
        <time>2025-04-09T10:18:43Z</time>
      </trkpt>
      <trkpt lat="43.63928" lon="1.38294">
        <ele>142</ele>
        <time>2025-04-09T10:18:44Z</time>
      </trkpt>
      <trkpt lat="43.63925" lon="1.38295">
        <ele>142</ele>
        <time>2025-04-09T10:18:45Z</time>
      </trkpt>
      <trkpt lat="43.63923" lon="1.38296">
        <ele>142</ele>
        <time>2025-04-09T10:18:46Z</time>
      </trkpt>
      <trkpt lat="43.63919" lon="1.38298">
        <ele>142</ele>
        <time>2025-04-09T10:18:47Z</time>
      </trkpt>
      <trkpt lat="43.63917" lon="1.383">
        <ele>142</ele>
        <time>2025-04-09T10:18:48Z</time>
      </trkpt>
      <trkpt lat="43.63914" lon="1.383">
        <ele>142</ele>
        <time>2025-04-09T10:18:49Z</time>
      </trkpt>
      <trkpt lat="43.63911" lon="1.38302">
        <ele>142</ele>
        <time>2025-04-09T10:18:50Z</time>
      </trkpt>
      <trkpt lat="43.63911" lon="1.38302">
        <ele>142</ele>
        <time>2025-04-09T10:18:51Z</time>
      </trkpt>
      <trkpt lat="43.63905" lon="1.38305">
        <ele>142</ele>
        <time>2025-04-09T10:18:52Z</time>
      </trkpt>
      <trkpt lat="43.63902" lon="1.38307">
        <ele>142</ele>
        <time>2025-04-09T10:18:53Z</time>
      </trkpt>
      <trkpt lat="43.63899" lon="1.38308">
        <ele>142</ele>
        <time>2025-04-09T10:18:54Z</time>
      </trkpt>
      <trkpt lat="43.63896" lon="1.38309">
        <ele>141</ele>
        <time>2025-04-09T10:18:55Z</time>
      </trkpt>
      <trkpt lat="43.63894" lon="1.3831">
        <ele>141</ele>
        <time>2025-04-09T10:18:56Z</time>
      </trkpt>
      <trkpt lat="43.63891" lon="1.38311">
        <ele>141</ele>
        <time>2025-04-09T10:18:57Z</time>
      </trkpt>
      <trkpt lat="43.63889" lon="1.38311">
        <ele>141</ele>
        <time>2025-04-09T10:18:58Z</time>
      </trkpt>
      <trkpt lat="43.63889" lon="1.38311">
        <ele>142</ele>
        <time>2025-04-09T10:18:59Z</time>
      </trkpt>
      <trkpt lat="43.63884" lon="1.38314">
        <ele>142</ele>
        <time>2025-04-09T10:19:00Z</time>
      </trkpt>
      <trkpt lat="43.63882" lon="1.38315">
        <ele>142</ele>
        <time>2025-04-09T10:19:01Z</time>
      </trkpt>
      <trkpt lat="43.63879" lon="1.38316">
        <ele>142</ele>
        <time>2025-04-09T10:19:02Z</time>
      </trkpt>
      <trkpt lat="43.63877" lon="1.38317">
        <ele>142</ele>
        <time>2025-04-09T10:19:03Z</time>
      </trkpt>
      <trkpt lat="43.63874" lon="1.38318">
        <ele>142</ele>
        <time>2025-04-09T10:19:04Z</time>
      </trkpt>
      <trkpt lat="43.63872" lon="1.38318">
        <ele>142</ele>
        <time>2025-04-09T10:19:05Z</time>
      </trkpt>
      <trkpt lat="43.63869" lon="1.3832">
        <ele>142</ele>
        <time>2025-04-09T10:19:06Z</time>
      </trkpt>
      <trkpt lat="43.63866" lon="1.38321">
        <ele>142</ele>
        <time>2025-04-09T10:19:07Z</time>
      </trkpt>
      <trkpt lat="43.63863" lon="1.38322">
        <ele>142</ele>
        <time>2025-04-09T10:19:08Z</time>
      </trkpt>
      <trkpt lat="43.63861" lon="1.38322">
        <ele>142</ele>
        <time>2025-04-09T10:19:09Z</time>
      </trkpt>
      <trkpt lat="43.63859" lon="1.38323">
        <ele>142</ele>
        <time>2025-04-09T10:19:10Z</time>
      </trkpt>
      <trkpt lat="43.63856" lon="1.38324">
        <ele>142</ele>
        <time>2025-04-09T10:19:11Z</time>
      </trkpt>
      <trkpt lat="43.63854" lon="1.38325">
        <ele>143</ele>
        <time>2025-04-09T10:19:12Z</time>
      </trkpt>
      <trkpt lat="43.63852" lon="1.38327">
        <ele>143</ele>
        <time>2025-04-09T10:19:13Z</time>
      </trkpt>
      <trkpt lat="43.63849" lon="1.38327">
        <ele>143</ele>
        <time>2025-04-09T10:19:14Z</time>
      </trkpt>
      <trkpt lat="43.63847" lon="1.38328">
        <ele>143</ele>
        <time>2025-04-09T10:19:15Z</time>
      </trkpt>
      <trkpt lat="43.63845" lon="1.38329">
        <ele>143</ele>
        <time>2025-04-09T10:19:16Z</time>
      </trkpt>
      <trkpt lat="43.63843" lon="1.3833">
        <ele>143</ele>
        <time>2025-04-09T10:19:17Z</time>
      </trkpt>
      <trkpt lat="43.63843" lon="1.3833">
        <ele>143</ele>
        <time>2025-04-09T10:19:18Z</time>
      </trkpt>
      <trkpt lat="43.63837" lon="1.38333">
        <ele>143</ele>
        <time>2025-04-09T10:19:19Z</time>
      </trkpt>
      <trkpt lat="43.63835" lon="1.38334">
        <ele>143</ele>
        <time>2025-04-09T10:19:20Z</time>
      </trkpt>
      <trkpt lat="43.63832" lon="1.38335">
        <ele>143</ele>
        <time>2025-04-09T10:19:21Z</time>
      </trkpt>
      <trkpt lat="43.63829" lon="1.38336">
        <ele>143</ele>
        <time>2025-04-09T10:19:22Z</time>
      </trkpt>
      <trkpt lat="43.63827" lon="1.38337">
        <ele>143</ele>
        <time>2025-04-09T10:19:23Z</time>
      </trkpt>
      <trkpt lat="43.63827" lon="1.38337">
        <ele>143</ele>
        <time>2025-04-09T10:19:24Z</time>
      </trkpt>
      <trkpt lat="43.63824" lon="1.38338">
        <ele>143</ele>
        <time>2025-04-09T10:19:25Z</time>
      </trkpt>
      <trkpt lat="43.63821" lon="1.3834">
        <ele>143</ele>
        <time>2025-04-09T10:19:26Z</time>
      </trkpt>
      <trkpt lat="43.63819" lon="1.38341">
        <ele>143</ele>
        <time>2025-04-09T10:19:27Z</time>
      </trkpt>
      <trkpt lat="43.63816" lon="1.38342">
        <ele>143</ele>
        <time>2025-04-09T10:19:28Z</time>
      </trkpt>
      <trkpt lat="43.63813" lon="1.38343">
        <ele>143</ele>
        <time>2025-04-09T10:19:29Z</time>
      </trkpt>
      <trkpt lat="43.6381" lon="1.38345">
        <ele>143</ele>
        <time>2025-04-09T10:19:30Z</time>
      </trkpt>
      <trkpt lat="43.63807" lon="1.38346">
        <ele>143</ele>
        <time>2025-04-09T10:19:31Z</time>
      </trkpt>
      <trkpt lat="43.63803" lon="1.38348">
        <ele>143</ele>
        <time>2025-04-09T10:19:32Z</time>
      </trkpt>
      <trkpt lat="43.63799" lon="1.38349">
        <ele>143</ele>
        <time>2025-04-09T10:19:33Z</time>
      </trkpt>
      <trkpt lat="43.63795" lon="1.38351">
        <ele>143</ele>
        <time>2025-04-09T10:19:34Z</time>
      </trkpt>
      <trkpt lat="43.63792" lon="1.38351">
        <ele>143</ele>
        <time>2025-04-09T10:19:35Z</time>
      </trkpt>
      <trkpt lat="43.63789" lon="1.38354">
        <ele>143</ele>
        <time>2025-04-09T10:19:36Z</time>
      </trkpt>
      <trkpt lat="43.63789" lon="1.38354">
        <ele>143</ele>
        <time>2025-04-09T10:19:37Z</time>
      </trkpt>
      <trkpt lat="43.63783" lon="1.38357">
        <ele>143</ele>
        <time>2025-04-09T10:19:38Z</time>
      </trkpt>
      <trkpt lat="43.6378" lon="1.38358">
        <ele>143</ele>
        <time>2025-04-09T10:19:39Z</time>
      </trkpt>
      <trkpt lat="43.63777" lon="1.38359">
        <ele>143</ele>
        <time>2025-04-09T10:19:40Z</time>
      </trkpt>
      <trkpt lat="43.63774" lon="1.38359">
        <ele>142</ele>
        <time>2025-04-09T10:19:41Z</time>
      </trkpt>
      <trkpt lat="43.63771" lon="1.38359">
        <ele>142</ele>
        <time>2025-04-09T10:19:42Z</time>
      </trkpt>
      <trkpt lat="43.63768" lon="1.38358">
        <ele>142</ele>
        <time>2025-04-09T10:19:43Z</time>
      </trkpt>
      <trkpt lat="43.63765" lon="1.38357">
        <ele>142</ele>
        <time>2025-04-09T10:19:44Z</time>
      </trkpt>
      <trkpt lat="43.63762" lon="1.38356">
        <ele>142</ele>
        <time>2025-04-09T10:19:45Z</time>
      </trkpt>
      <trkpt lat="43.63759" lon="1.38356">
        <ele>142</ele>
        <time>2025-04-09T10:19:46Z</time>
      </trkpt>
      <trkpt lat="43.63756" lon="1.38357">
        <ele>142</ele>
        <time>2025-04-09T10:19:47Z</time>
      </trkpt>
      <trkpt lat="43.63754" lon="1.38358">
        <ele>142</ele>
        <time>2025-04-09T10:19:48Z</time>
      </trkpt>
      <trkpt lat="43.63751" lon="1.3836">
        <ele>142</ele>
        <time>2025-04-09T10:19:49Z</time>
      </trkpt>
      <trkpt lat="43.63749" lon="1.38362">
        <ele>142</ele>
        <time>2025-04-09T10:19:50Z</time>
      </trkpt>
      <trkpt lat="43.63747" lon="1.38365">
        <ele>142</ele>
        <time>2025-04-09T10:19:51Z</time>
      </trkpt>
      <trkpt lat="43.63745" lon="1.38367">
        <ele>142</ele>
        <time>2025-04-09T10:19:52Z</time>
      </trkpt>
      <trkpt lat="43.63743" lon="1.38369">
        <ele>142</ele>
        <time>2025-04-09T10:19:53Z</time>
      </trkpt>
      <trkpt lat="43.63741" lon="1.3837">
        <ele>143</ele>
        <time>2025-04-09T10:19:54Z</time>
      </trkpt>
      <trkpt lat="43.63738" lon="1.38371">
        <ele>143</ele>
        <time>2025-04-09T10:19:55Z</time>
      </trkpt>
      <trkpt lat="43.63738" lon="1.38371">
        <ele>143</ele>
        <time>2025-04-09T10:19:56Z</time>
      </trkpt>
      <trkpt lat="43.63736" lon="1.38372">
        <ele>143</ele>
        <time>2025-04-09T10:19:57Z</time>
      </trkpt>
      <trkpt lat="43.63734" lon="1.38373">
        <ele>143</ele>
        <time>2025-04-09T10:19:58Z</time>
      </trkpt>
      <trkpt lat="43.63731" lon="1.38374">
        <ele>143</ele>
        <time>2025-04-09T10:19:59Z</time>
      </trkpt>
      <trkpt lat="43.63729" lon="1.38375">
        <ele>143</ele>
        <time>2025-04-09T10:20:00Z</time>
      </trkpt>
      <trkpt lat="43.63726" lon="1.38376">
        <ele>143</ele>
        <time>2025-04-09T10:20:01Z</time>
      </trkpt>
      <trkpt lat="43.63723" lon="1.38377">
        <ele>143</ele>
        <time>2025-04-09T10:20:02Z</time>
      </trkpt>
      <trkpt lat="43.6372" lon="1.38378">
        <ele>143</ele>
        <time>2025-04-09T10:20:03Z</time>
      </trkpt>
      <trkpt lat="43.63718" lon="1.38379">
        <ele>143</ele>
        <time>2025-04-09T10:20:04Z</time>
      </trkpt>
      <trkpt lat="43.63715" lon="1.38379">
        <ele>143</ele>
        <time>2025-04-09T10:20:05Z</time>
      </trkpt>
      <trkpt lat="43.63712" lon="1.3838">
        <ele>143</ele>
        <time>2025-04-09T10:20:06Z</time>
      </trkpt>
      <trkpt lat="43.6371" lon="1.3838">
        <ele>143</ele>
        <time>2025-04-09T10:20:07Z</time>
      </trkpt>
      <trkpt lat="43.63707" lon="1.38381">
        <ele>143</ele>
        <time>2025-04-09T10:20:08Z</time>
      </trkpt>
      <trkpt lat="43.63704" lon="1.38382">
        <ele>143</ele>
        <time>2025-04-09T10:20:09Z</time>
      </trkpt>
      <trkpt lat="43.63702" lon="1.38384">
        <ele>143</ele>
        <time>2025-04-09T10:20:10Z</time>
      </trkpt>
      <trkpt lat="43.63699" lon="1.38385">
        <ele>143</ele>
        <time>2025-04-09T10:20:11Z</time>
      </trkpt>
      <trkpt lat="43.63696" lon="1.38386">
        <ele>143</ele>
        <time>2025-04-09T10:20:12Z</time>
      </trkpt>
      <trkpt lat="43.63693" lon="1.38387">
        <ele>143</ele>
        <time>2025-04-09T10:20:13Z</time>
      </trkpt>
      <trkpt lat="43.6369" lon="1.38389">
        <ele>143</ele>
        <time>2025-04-09T10:20:14Z</time>
      </trkpt>
      <trkpt lat="43.63687" lon="1.3839">
        <ele>143</ele>
        <time>2025-04-09T10:20:15Z</time>
      </trkpt>
      <trkpt lat="43.63684" lon="1.38391">
        <ele>143</ele>
        <time>2025-04-09T10:20:16Z</time>
      </trkpt>
      <trkpt lat="43.63682" lon="1.38392">
        <ele>143</ele>
        <time>2025-04-09T10:20:17Z</time>
      </trkpt>
      <trkpt lat="43.63679" lon="1.38392">
        <ele>143</ele>
        <time>2025-04-09T10:20:18Z</time>
      </trkpt>
      <trkpt lat="43.63676" lon="1.38393">
        <ele>143</ele>
        <time>2025-04-09T10:20:19Z</time>
      </trkpt>
      <trkpt lat="43.63673" lon="1.38394">
        <ele>143</ele>
        <time>2025-04-09T10:20:20Z</time>
      </trkpt>
      <trkpt lat="43.6367" lon="1.38395">
        <ele>143</ele>
        <time>2025-04-09T10:20:21Z</time>
      </trkpt>
      <trkpt lat="43.63667" lon="1.38396">
        <ele>143</ele>
        <time>2025-04-09T10:20:22Z</time>
      </trkpt>
      <trkpt lat="43.63665" lon="1.38397">
        <ele>143</ele>
        <time>2025-04-09T10:20:23Z</time>
      </trkpt>
      <trkpt lat="43.63662" lon="1.38398">
        <ele>143</ele>
        <time>2025-04-09T10:20:24Z</time>
      </trkpt>
      <trkpt lat="43.6366" lon="1.38399">
        <ele>143</ele>
        <time>2025-04-09T10:20:25Z</time>
      </trkpt>
      <trkpt lat="43.63657" lon="1.38399">
        <ele>143</ele>
        <time>2025-04-09T10:20:26Z</time>
      </trkpt>
      <trkpt lat="43.63655" lon="1.38401">
        <ele>143</ele>
        <time>2025-04-09T10:20:27Z</time>
      </trkpt>
      <trkpt lat="43.63653" lon="1.38402">
        <ele>143</ele>
        <time>2025-04-09T10:20:28Z</time>
      </trkpt>
      <trkpt lat="43.6365" lon="1.38403">
        <ele>143</ele>
        <time>2025-04-09T10:20:29Z</time>
      </trkpt>
      <trkpt lat="43.63648" lon="1.38404">
        <ele>143</ele>
        <time>2025-04-09T10:20:30Z</time>
      </trkpt>
      <trkpt lat="43.63645" lon="1.38405">
        <ele>143</ele>
        <time>2025-04-09T10:20:31Z</time>
      </trkpt>
      <trkpt lat="43.63642" lon="1.38407">
        <ele>143</ele>
        <time>2025-04-09T10:20:32Z</time>
      </trkpt>
      <trkpt lat="43.63639" lon="1.38408">
        <ele>143</ele>
        <time>2025-04-09T10:20:33Z</time>
      </trkpt>
      <trkpt lat="43.63637" lon="1.38409">
        <ele>143</ele>
        <time>2025-04-09T10:20:34Z</time>
      </trkpt>
      <trkpt lat="43.63636" lon="1.3841">
        <ele>143</ele>
        <time>2025-04-09T10:20:35Z</time>
      </trkpt>
      <trkpt lat="43.63634" lon="1.38414">
        <ele>143</ele>
        <time>2025-04-09T10:20:36Z</time>
      </trkpt>
      <trkpt lat="43.63632" lon="1.38418">
        <ele>143</ele>
        <time>2025-04-09T10:20:37Z</time>
      </trkpt>
      <trkpt lat="43.63629" lon="1.38422">
        <ele>143</ele>
        <time>2025-04-09T10:20:38Z</time>
      </trkpt>
      <trkpt lat="43.63627" lon="1.38426">
        <ele>143</ele>
        <time>2025-04-09T10:20:39Z</time>
      </trkpt>
      <trkpt lat="43.63626" lon="1.38429">
        <ele>143</ele>
        <time>2025-04-09T10:20:40Z</time>
      </trkpt>
      <trkpt lat="43.63625" lon="1.38433">
        <ele>143</ele>
        <time>2025-04-09T10:20:41Z</time>
      </trkpt>
      <trkpt lat="43.63624" lon="1.38437">
        <ele>143</ele>
        <time>2025-04-09T10:20:42Z</time>
      </trkpt>
      <trkpt lat="43.63624" lon="1.38441">
        <ele>143</ele>
        <time>2025-04-09T10:20:43Z</time>
      </trkpt>
      <trkpt lat="43.63623" lon="1.38444">
        <ele>143</ele>
        <time>2025-04-09T10:20:44Z</time>
      </trkpt>
      <trkpt lat="43.63624" lon="1.38448">
        <ele>143</ele>
        <time>2025-04-09T10:20:45Z</time>
      </trkpt>
      <trkpt lat="43.63623" lon="1.38452">
        <ele>143</ele>
        <time>2025-04-09T10:20:46Z</time>
      </trkpt>
      <trkpt lat="43.63623" lon="1.38456">
        <ele>143</ele>
        <time>2025-04-09T10:20:47Z</time>
      </trkpt>
      <trkpt lat="43.63623" lon="1.3846">
        <ele>143</ele>
        <time>2025-04-09T10:20:48Z</time>
      </trkpt>
      <trkpt lat="43.63623" lon="1.38464">
        <ele>143</ele>
        <time>2025-04-09T10:20:49Z</time>
      </trkpt>
      <trkpt lat="43.63623" lon="1.38468">
        <ele>143</ele>
        <time>2025-04-09T10:20:50Z</time>
      </trkpt>
      <trkpt lat="43.63623" lon="1.38472">
        <ele>143</ele>
        <time>2025-04-09T10:20:51Z</time>
      </trkpt>
      <trkpt lat="43.63623" lon="1.38475">
        <ele>143</ele>
        <time>2025-04-09T10:20:52Z</time>
      </trkpt>
      <trkpt lat="43.63622" lon="1.38479">
        <ele>143</ele>
        <time>2025-04-09T10:20:53Z</time>
      </trkpt>
      <trkpt lat="43.63622" lon="1.38483">
        <ele>143</ele>
        <time>2025-04-09T10:20:54Z</time>
      </trkpt>
      <trkpt lat="43.63622" lon="1.38487">
        <ele>143</ele>
        <time>2025-04-09T10:20:55Z</time>
      </trkpt>
      <trkpt lat="43.63621" lon="1.3849">
        <ele>143</ele>
        <time>2025-04-09T10:20:56Z</time>
      </trkpt>
      <trkpt lat="43.6362" lon="1.38494">
        <ele>143</ele>
        <time>2025-04-09T10:20:57Z</time>
      </trkpt>
      <trkpt lat="43.63617" lon="1.38497">
        <ele>143</ele>
        <time>2025-04-09T10:20:58Z</time>
      </trkpt>
      <trkpt lat="43.63615" lon="1.38499">
        <ele>143</ele>
        <time>2025-04-09T10:20:59Z</time>
      </trkpt>
      <trkpt lat="43.63612" lon="1.38502">
        <ele>143</ele>
        <time>2025-04-09T10:21:00Z</time>
      </trkpt>
      <trkpt lat="43.63609" lon="1.38504">
        <ele>143</ele>
        <time>2025-04-09T10:21:01Z</time>
      </trkpt>
      <trkpt lat="43.63607" lon="1.38505">
        <ele>143</ele>
        <time>2025-04-09T10:21:02Z</time>
      </trkpt>
      <trkpt lat="43.63603" lon="1.38506">
        <ele>143</ele>
        <time>2025-04-09T10:21:03Z</time>
      </trkpt>
      <trkpt lat="43.636" lon="1.38507">
        <ele>142</ele>
        <time>2025-04-09T10:21:04Z</time>
      </trkpt>
      <trkpt lat="43.63597" lon="1.38508">
        <ele>142</ele>
        <time>2025-04-09T10:21:05Z</time>
      </trkpt>
      <trkpt lat="43.63595" lon="1.38509">
        <ele>143</ele>
        <time>2025-04-09T10:21:06Z</time>
      </trkpt>
      <trkpt lat="43.63592" lon="1.3851">
        <ele>143</ele>
        <time>2025-04-09T10:21:07Z</time>
      </trkpt>
      <trkpt lat="43.6359" lon="1.38511">
        <ele>143</ele>
        <time>2025-04-09T10:21:08Z</time>
      </trkpt>
      <trkpt lat="43.63588" lon="1.38512">
        <ele>143</ele>
        <time>2025-04-09T10:21:09Z</time>
      </trkpt>
      <trkpt lat="43.63588" lon="1.38512">
        <ele>143</ele>
        <time>2025-04-09T10:21:10Z</time>
      </trkpt>
      <trkpt lat="43.63585" lon="1.38514">
        <ele>143</ele>
        <time>2025-04-09T10:21:11Z</time>
      </trkpt>
      <trkpt lat="43.63585" lon="1.38514">
        <ele>143</ele>
        <time>2025-04-09T10:21:12Z</time>
      </trkpt>
      <trkpt lat="43.63584" lon="1.38516">
        <ele>143</ele>
        <time>2025-04-09T10:21:13Z</time>
      </trkpt>
      <trkpt lat="43.63581" lon="1.3852">
        <ele>143</ele>
        <time>2025-04-09T10:21:14Z</time>
      </trkpt>
      <trkpt lat="43.63579" lon="1.38521">
        <ele>143</ele>
        <time>2025-04-09T10:21:15Z</time>
      </trkpt>
      <trkpt lat="43.63577" lon="1.38521">
        <ele>143</ele>
        <time>2025-04-09T10:21:16Z</time>
      </trkpt>
      <trkpt lat="43.63574" lon="1.3852">
        <ele>143</ele>
        <time>2025-04-09T10:21:17Z</time>
      </trkpt>
      <trkpt lat="43.63571" lon="1.38521">
        <ele>143</ele>
        <time>2025-04-09T10:21:18Z</time>
      </trkpt>
      <trkpt lat="43.63568" lon="1.38521">
        <ele>143</ele>
        <time>2025-04-09T10:21:19Z</time>
      </trkpt>
      <trkpt lat="43.63566" lon="1.38521">
        <ele>143</ele>
        <time>2025-04-09T10:21:20Z</time>
      </trkpt>
      <trkpt lat="43.63563" lon="1.38522">
        <ele>143</ele>
        <time>2025-04-09T10:21:21Z</time>
      </trkpt>
      <trkpt lat="43.63561" lon="1.38522">
        <ele>143</ele>
        <time>2025-04-09T10:21:22Z</time>
      </trkpt>
      <trkpt lat="43.63559" lon="1.38523">
        <ele>143</ele>
        <time>2025-04-09T10:21:23Z</time>
      </trkpt>
      <trkpt lat="43.63557" lon="1.38524">
        <ele>143</ele>
        <time>2025-04-09T10:21:24Z</time>
      </trkpt>
      <trkpt lat="43.63554" lon="1.38524">
        <ele>143</ele>
        <time>2025-04-09T10:21:25Z</time>
      </trkpt>
      <trkpt lat="43.63552" lon="1.38525">
        <ele>143</ele>
        <time>2025-04-09T10:21:26Z</time>
      </trkpt>
      <trkpt lat="43.63549" lon="1.38527">
        <ele>144</ele>
        <time>2025-04-09T10:21:27Z</time>
      </trkpt>
      <trkpt lat="43.63547" lon="1.38528">
        <ele>144</ele>
        <time>2025-04-09T10:21:28Z</time>
      </trkpt>
      <trkpt lat="43.63545" lon="1.3853">
        <ele>144</ele>
        <time>2025-04-09T10:21:29Z</time>
      </trkpt>
      <trkpt lat="43.63543" lon="1.38533">
        <ele>144</ele>
        <time>2025-04-09T10:21:30Z</time>
      </trkpt>
      <trkpt lat="43.63543" lon="1.38533">
        <ele>144</ele>
        <time>2025-04-09T10:21:31Z</time>
      </trkpt>
      <trkpt lat="43.63538" lon="1.3854">
        <ele>144</ele>
        <time>2025-04-09T10:21:32Z</time>
      </trkpt>
      <trkpt lat="43.63537" lon="1.38544">
        <ele>144</ele>
        <time>2025-04-09T10:21:33Z</time>
      </trkpt>
      <trkpt lat="43.63535" lon="1.38547">
        <ele>144</ele>
        <time>2025-04-09T10:21:34Z</time>
      </trkpt>
      <trkpt lat="43.63534" lon="1.38551">
        <ele>144</ele>
        <time>2025-04-09T10:21:35Z</time>
      </trkpt>
      <trkpt lat="43.63532" lon="1.38555">
        <ele>145</ele>
        <time>2025-04-09T10:21:36Z</time>
      </trkpt>
      <trkpt lat="43.63531" lon="1.38559">
        <ele>145</ele>
        <time>2025-04-09T10:21:37Z</time>
      </trkpt>
      <trkpt lat="43.6353" lon="1.38563">
        <ele>145</ele>
        <time>2025-04-09T10:21:38Z</time>
      </trkpt>
      <trkpt lat="43.63527" lon="1.38566">
        <ele>144</ele>
        <time>2025-04-09T10:21:39Z</time>
      </trkpt>
      <trkpt lat="43.63524" lon="1.38567">
        <ele>144</ele>
        <time>2025-04-09T10:21:40Z</time>
      </trkpt>
      <trkpt lat="43.63521" lon="1.38567">
        <ele>145</ele>
        <time>2025-04-09T10:21:41Z</time>
      </trkpt>
      <trkpt lat="43.63518" lon="1.38566">
        <ele>145</ele>
        <time>2025-04-09T10:21:42Z</time>
      </trkpt>
      <trkpt lat="43.63515" lon="1.38565">
        <ele>144</ele>
        <time>2025-04-09T10:21:43Z</time>
      </trkpt>
      <trkpt lat="43.63512" lon="1.38564">
        <ele>144</ele>
        <time>2025-04-09T10:21:44Z</time>
      </trkpt>
      <trkpt lat="43.63509" lon="1.38562">
        <ele>144</ele>
        <time>2025-04-09T10:21:45Z</time>
      </trkpt>
      <trkpt lat="43.63505" lon="1.38561">
        <ele>144</ele>
        <time>2025-04-09T10:21:46Z</time>
      </trkpt>
      <trkpt lat="43.63502" lon="1.3856">
        <ele>143</ele>
        <time>2025-04-09T10:21:47Z</time>
      </trkpt>
      <trkpt lat="43.635" lon="1.38559">
        <ele>143</ele>
        <time>2025-04-09T10:21:48Z</time>
      </trkpt>
      <trkpt lat="43.63497" lon="1.38557">
        <ele>143</ele>
        <time>2025-04-09T10:21:49Z</time>
      </trkpt>
      <trkpt lat="43.63497" lon="1.38557">
        <ele>143</ele>
        <time>2025-04-09T10:21:50Z</time>
      </trkpt>
      <trkpt lat="43.63494" lon="1.38557">
        <ele>143</ele>
        <time>2025-04-09T10:21:51Z</time>
      </trkpt>
      <trkpt lat="43.63488" lon="1.38556">
        <ele>143</ele>
        <time>2025-04-09T10:21:52Z</time>
      </trkpt>
      <trkpt lat="43.63485" lon="1.38557">
        <ele>143</ele>
        <time>2025-04-09T10:21:53Z</time>
      </trkpt>
      <trkpt lat="43.63482" lon="1.38558">
        <ele>142</ele>
        <time>2025-04-09T10:21:54Z</time>
      </trkpt>
      <trkpt lat="43.63479" lon="1.38559">
        <ele>143</ele>
        <time>2025-04-09T10:21:55Z</time>
      </trkpt>
      <trkpt lat="43.63476" lon="1.38558">
        <ele>143</ele>
        <time>2025-04-09T10:21:56Z</time>
      </trkpt>
      <trkpt lat="43.63473" lon="1.38558">
        <ele>142</ele>
        <time>2025-04-09T10:21:57Z</time>
      </trkpt>
      <trkpt lat="43.6347" lon="1.38557">
        <ele>142</ele>
        <time>2025-04-09T10:21:58Z</time>
      </trkpt>
      <trkpt lat="43.63468" lon="1.38557">
        <ele>143</ele>
        <time>2025-04-09T10:21:59Z</time>
      </trkpt>
      <trkpt lat="43.63465" lon="1.38557">
        <ele>143</ele>
        <time>2025-04-09T10:22:00Z</time>
      </trkpt>
      <trkpt lat="43.63462" lon="1.38557">
        <ele>143</ele>
        <time>2025-04-09T10:22:01Z</time>
      </trkpt>
      <trkpt lat="43.6346" lon="1.38558">
        <ele>144</ele>
        <time>2025-04-09T10:22:02Z</time>
      </trkpt>
      <trkpt lat="43.63457" lon="1.38559">
        <ele>144</ele>
        <time>2025-04-09T10:22:03Z</time>
      </trkpt>
      <trkpt lat="43.63455" lon="1.38561">
        <ele>144</ele>
        <time>2025-04-09T10:22:04Z</time>
      </trkpt>
      <trkpt lat="43.63453" lon="1.38563">
        <ele>144</ele>
        <time>2025-04-09T10:22:05Z</time>
      </trkpt>
      <trkpt lat="43.63451" lon="1.38565">
        <ele>144</ele>
        <time>2025-04-09T10:22:06Z</time>
      </trkpt>
      <trkpt lat="43.63449" lon="1.38567">
        <ele>144</ele>
        <time>2025-04-09T10:22:07Z</time>
      </trkpt>
      <trkpt lat="43.63447" lon="1.38571">
        <ele>144</ele>
        <time>2025-04-09T10:22:08Z</time>
      </trkpt>
      <trkpt lat="43.63445" lon="1.38578">
        <ele>144</ele>
        <time>2025-04-09T10:22:10Z</time>
      </trkpt>
      <trkpt lat="43.63443" lon="1.38582">
        <ele>144</ele>
        <time>2025-04-09T10:22:11Z</time>
      </trkpt>
      <trkpt lat="43.63442" lon="1.38585">
        <ele>143</ele>
        <time>2025-04-09T10:22:12Z</time>
      </trkpt>
      <trkpt lat="43.63441" lon="1.38589">
        <ele>143</ele>
        <time>2025-04-09T10:22:13Z</time>
      </trkpt>
      <trkpt lat="43.6344" lon="1.38593">
        <ele>143</ele>
        <time>2025-04-09T10:22:14Z</time>
      </trkpt>
      <trkpt lat="43.6344" lon="1.38596">
        <ele>143</ele>
        <time>2025-04-09T10:22:15Z</time>
      </trkpt>
      <trkpt lat="43.63439" lon="1.386">
        <ele>143</ele>
        <time>2025-04-09T10:22:16Z</time>
      </trkpt>
      <trkpt lat="43.63438" lon="1.38604">
        <ele>143</ele>
        <time>2025-04-09T10:22:17Z</time>
      </trkpt>
      <trkpt lat="43.63437" lon="1.38608">
        <ele>143</ele>
        <time>2025-04-09T10:22:18Z</time>
      </trkpt>
      <trkpt lat="43.63436" lon="1.38611">
        <ele>142</ele>
        <time>2025-04-09T10:22:19Z</time>
      </trkpt>
      <trkpt lat="43.63434" lon="1.38614">
        <ele>142</ele>
        <time>2025-04-09T10:22:20Z</time>
      </trkpt>
      <trkpt lat="43.63432" lon="1.38617">
        <ele>141</ele>
        <time>2025-04-09T10:22:21Z</time>
      </trkpt>
      <trkpt lat="43.6343" lon="1.38619">
        <ele>141</ele>
        <time>2025-04-09T10:22:22Z</time>
      </trkpt>
      <trkpt lat="43.63427" lon="1.38618">
        <ele>141</ele>
        <time>2025-04-09T10:22:23Z</time>
      </trkpt>
      <trkpt lat="43.63426" lon="1.38616">
        <ele>141</ele>
        <time>2025-04-09T10:22:24Z</time>
      </trkpt>
      <trkpt lat="43.63426" lon="1.38616">
        <ele>141</ele>
        <time>2025-04-09T10:22:25Z</time>
      </trkpt>
    </trkseg>
  </trk>
</gpx>